Flight Track Log - Related Links

Times and Time Zones

All times are in EST time to prevent confusion due to time zone crossing. See the AAL90 flight status page for this flight to view local times or setup timezone preferences in your user account.

Time Position Orientation Groundspeed Altitude Reporting Facility
EST Latitude Longitude Course Direction KTS MPH feet Rate Location/Type
Fri 09:58:55 AM 41.9724 -87.9179 270° West 130 150  Level FlightAware ADS-B
Fri 09:59:14 AM 41.9820 -87.9286 321° Northwest 152 175 1,800 4,500 Climbing FlightAware ADS-B
Fri 09:59:35 AM 41.9940 -87.9414 322° Northwest 155 178 3,000 2,780 Climbing FlightAware ADS-B
Fri 09:59:55 AM 42.0059 -87.9540 322° Northwest 182 209 3,700 1,950 Climbing FlightAware ADS-B
Fri 10:00:15 AM 42.0193 -87.9678 322° Northwest 208 239 4,300 2,100 Climbing FlightAware ADS-B
Fri 10:00:35 AM 42.0334 -87.9828 322° Northwest 214 246 5,100 1,350 Climbing FlightAware ADS-B
Fri 10:00:55 AM 42.0564 -87.9926 343° North 238 274 5,200 154 Climbing FlightAware ADS-B
Fri 10:01:14 AM 42.0773 -87.9922 North 246 283 5,200  Level FlightAware ADS-B
Fri 10:01:35 AM 42.1017 -87.9910 North 246 283 5,200 150 Level FlightAware ADS-B
Fri 10:01:54 AM 42.1224 -87.9900 North 242 278 5,300 1,350 Climbing FlightAware ADS-B
Fri 10:02:15 AM 42.1444 -87.9891 North 250 288 6,100 3,220 Climbing FlightAware ADS-B
Fri 10:02:35 AM 42.1705 -87.9878 North 257 296 7,500 4,050 Climbing FlightAware ADS-B
Fri 10:02:55 AM 42.1939 -87.9861 North 258 297 8,800 3,300 Climbing FlightAware ADS-B
Fri 10:03:35 AM 42.2411 -87.9825 North 288 331 10,800 2,550 Climbing FlightAware ADS-B
Fri 10:04:15 AM 42.3001 -87.9797 North 336 387 12,200 2,400 Climbing FlightAware ADS-B
Fri 10:04:45 AM 42.3009 -87.9797 359° North 345 397 13,600 3,042 Climbing FlightAware ADS-B
Fri 10:05:26 AM 42.3009 -87.9797 359° North 389 448 15,800 3,067 Climbing FlightAware ADS-B
Fri 10:06:15 AM 42.4972 -87.9035 16° North 406 467 18,200 2,899 Climbing FlightAware ADS-B
Fri 10:06:55 AM 42.5641 -87.8510 30° Northeast 421 484 20,100 2,550 Climbing FlightAware ADS-B
Fri 10:07:35 AM 42.6326 -87.7935 32° Northeast 445 512 21,600 2,419 Climbing FlightAware ADS-B
Fri 10:07:57 AM 42.6718 -87.7605 32° Northeast 421 484 22,600 2,600 Climbing FlightAware ADS-B
Fri 10:08:35 AM 42.7404 -87.7037 31° Northeast 460 529 24,200 2,104 Climbing FlightAware ADS-B
Fri 10:09:14 AM 42.8132 -87.6419 32° Northeast 487 560 25,300 1,875 Climbing FlightAware ADS-B
Fri 10:09:55 AM 42.8872 -87.5628 38° Northeast 505 581 26,700 2,000 Climbing FlightAware ADS-B
Fri 10:10:35 AM 42.9571 -87.4864 39° Northeast 517 595 28,000 2,025 Climbing FlightAware ADS-B
Fri 10:11:15 AM 43.0357 -87.4015 38° Northeast 524 603 29,400 3,000 Climbing FlightAware ADS-B
Fri 10:11:55 AM 43.1045 -87.3255 39° Northeast 496 571 32,000 3,150 Climbing FlightAware ADS-B
Fri 10:12:35 AM 43.1809 -87.2424 38° Northeast 490 564 33,600 2,250 Climbing FlightAware ADS-B
Fri 10:13:15 AM 43.2508 -87.1659 39° Northeast 481 554 35,000 1,050 Climbing FlightAware ADS-B
Fri 10:13:55 AM 43.3198 -87.0883 39° Northeast 490 564 35,000  Level FlightAware ADS-B
Fri 10:14:35 AM 43.3897 -87.0090 40° Northeast 486 559 35,000  Level FlightAware ADS-B
Fri 10:15:11 AM 43.4539 -86.9374 39° Northeast 480 552 35,000  Level FlightAware ADS-B
Fri 10:15:55 AM 43.5285 -86.8543 39° Northeast 477 549 35,000  Level FlightAware ADS-B
Fri 10:16:35 AM 43.5960 -86.7786 39° Northeast 475 547 35,000  Level FlightAware ADS-B
Fri 10:17:12 AM 43.6604 -86.7067 39° Northeast 474 545 35,000  Level FlightAware ADS-B
Fri 10:17:53 AM 43.7254 -86.6334 39° Northeast 473 544 35,000  Level FlightAware ADS-B
Fri 10:18:34 AM 43.7944 -86.5515 41° Northeast 475 547 35,000  Level FlightAware ADS-B
Fri 10:19:15 AM 43.8626 -86.4643 43° Northeast 476 548 35,000  Level FlightAware ADS-B
Fri 10:19:55 AM 43.9283 -86.3805 43° Northeast 481 554 35,000  Level FlightAware ADS-B
Fri 10:20:35 AM 43.9939 -86.2979 42° Northeast 483 556 35,000  Level FlightAware ADS-B
Fri 10:23:10 AM 44.2529 -85.9690 42° Northeast 486 559 35,000  Level FlightAware ADS-B
Fri 10:25:04 AM 44.4454 -85.7219 42° Northeast 496 571 35,000  Level FlightAware ADS-B
Fri 10:25:49 AM 44.5200 -85.6255 43° Northeast 493 567 35,000  Level FlightAware ADS-B
Fri 10:26:26 AM 44.5756 -85.5578 43° Northeast 495 570 35,000  Level Minneapolis Center
Fri 10:27:27 AM 44.6744 -85.4292 43° Northeast 490 564 35,000  Level Minneapolis Center
Fri 10:28:29 AM 44.7728 -85.3006 43° Northeast 488 562 35,000  Level Minneapolis Center
Fri 10:29:30 AM 44.8900 -85.1467 43° Northeast 485 558 35,000  Level Minneapolis Center
Fri 10:30:32 AM 44.9856 -85.0175 44° Northeast 481 554 35,000  Level Minneapolis Center
Fri 10:31:34 AM 45.0842 -84.8903 42° Northeast 481 554 35,000  Level Minneapolis Center
Fri 10:32:35 AM 45.1811 -84.7592 44° Northeast 483 556 35,000  Level Minneapolis Center
Fri 10:33:36 AM 45.2769 -84.6281 44° Northeast 482 555 35,000  Level Minneapolis Center
Fri 10:34:38 AM 45.3736 -84.4961 44° Northeast 483 556 35,000  Level Minneapolis Center
Fri 10:35:39 AM 45.4711 -84.3661 43° Northeast 482 555 35,000  Level Minneapolis Center
Fri 10:36:41 AM 45.5867 -84.2069 44° Northeast 482 555 35,000  Level Minneapolis Center
Fri 10:37:16 AM 45.6333 -84.1167 54° Northeast 480 552 35,000  Level Toronto Center
Fri 10:38:16 AM 45.7333 -83.9833 43° Northeast 480 552 35,000  Level Toronto Center
Fri 10:39:16 AM 45.8167 -83.8667 44° Northeast 480 552 35,000  Level Toronto Center
Fri 10:40:16 AM 45.9333 -83.7000 45° Northeast 490 564 35,000  Level Toronto Center
Fri 10:41:16 AM 46.0167 -83.6000 40° Northeast 490 564 35,000  Level Toronto Center
Fri 10:42:16 AM 46.1167 -83.4333 49° Northeast 490 564 35,000  Level Toronto Center
Fri 10:43:16 AM 46.2000 -83.3167 44° Northeast 490 564 35,000  Level Toronto Center
Fri 10:44:16 AM 46.3167 -83.1833 38° Northeast 490 564 35,000  Level Toronto Center
Fri 10:45:16 AM 46.4000 -83.0333 51° Northeast 490 564 35,000  Level Toronto Center
Fri 10:46:16 AM 46.5000 -82.9000 43° Northeast 480 552 35,000  Level Toronto Center
Fri 10:47:16 AM 46.5833 -82.7667 48° Northeast 480 552 35,000  Level Toronto Center
Fri 10:48:16 AM 46.7000 -82.6167 41° Northeast 480 552 35,000  Level Toronto Center
Fri 10:49:16 AM 46.7833 -82.4833 48° Northeast 480 552 35,000  Level Toronto Center
Fri 10:50:16 AM 46.8667 -82.3333 51° Northeast 480 552 35,000  Level Toronto Center
Fri 10:51:16 AM 46.9667 -82.2000 42° Northeast 480 552 35,000  Level Toronto Center
Fri 10:52:16 AM 47.0500 -82.0833 44° Northeast 480 552 35,000  Level Toronto Center
Fri 10:53:16 AM 47.1667 -81.9167 44° Northeast 480 552 35,000  Level Toronto Center
Fri 10:54:16 AM 47.2500 -81.8000 44° Northeast 480 552 35,000  Level Toronto Center
Fri 10:55:16 AM 47.3500 -81.6500 45° Northeast 490 564 35,000  Level Toronto Center
Fri 10:56:16 AM 47.4500 -81.5000 45° Northeast 490 564 35,000  Level Toronto Center
Fri 10:57:16 AM 47.5333 -81.3667 47° Northeast 490 564 35,000  Level Toronto Center
Fri 10:58:16 AM 47.6167 -81.2167 50° Northeast 490 564 35,000  Level Toronto Center
Fri 10:59:16 AM 47.7167 -81.0667 45° Northeast 480 552 35,000  Level Toronto Center
Fri 11:00:16 AM 47.8000 -80.9167 50° Northeast 490 564 35,000  Level Toronto Center
Fri 11:01:16 AM 47.9167 -80.7667 41° Northeast 480 552 35,000  Level Toronto Center
Fri 11:02:16 AM 48.0000 -80.6333 47° Northeast 480 552 35,000  Level Toronto Center
Fri 11:02:55 AM 48.0667 -80.5667 34° Northeast 480 552 35,000  Level Montreal Center
Fri 11:03:55 AM 48.1500 -80.4333 47° Northeast 480 552 35,000  Level Montreal Center
Fri 11:04:55 AM 48.2500 -80.2833 45° Northeast 480 552 35,000  Level Montreal Center
Fri 11:05:55 AM 48.3333 -80.1167 53° Northeast 480 552 35,000  Level Montreal Center
Fri 11:06:55 AM 48.4167 -79.9667 50° Northeast 480 552 35,000  Level Montreal Center
Fri 11:07:55 AM 48.5167 -79.8167 45° Northeast 480 552 35,000  Level Montreal Center
Fri 11:08:55 AM 48.6167 -79.6833 41° Northeast 480 552 35,000  Level Montreal Center
Fri 11:09:55 AM 48.7000 -79.5333 50° Northeast 480 552 35,000  Level Montreal Center
Fri 11:10:55 AM 48.8000 -79.3833 45° Northeast 480 552 35,000  Level Montreal Center
Fri 11:11:55 AM 48.8833 -79.2167 53° Northeast 490 564 35,000  Level Montreal Center
Fri 11:12:55 AM 48.9833 -79.0667 45° Northeast 490 564 35,000  Level Montreal Center
Fri 11:13:55 AM 49.0833 -78.9167 44° Northeast 500 575 35,000  Level Montreal Center
Fri 11:14:55 AM 49.1833 -78.7667 44° Northeast 500 575 35,000  Level Montreal Center
Fri 11:15:55 AM 49.2500 -78.6000 58° Northeast 490 564 35,000  Level Montreal Center
Fri 11:16:55 AM 49.3667 -78.4500 40° Northeast 490 564 35,000  Level Montreal Center
Fri 11:17:55 AM 49.4500 -78.3000 49° Northeast 480 552 35,000  Level Montreal Center
Fri 11:18:55 AM 49.5333 -78.1500 49° Northeast 500 575 35,000  Level Montreal Center
Fri 11:19:55 AM 49.6333 -77.9667 50° Northeast 490 564 35,000  Level Montreal Center
Fri 11:20:55 AM 49.7167 -77.8167 49° Northeast 490 564 35,000  Level Montreal Center
Fri 11:21:55 AM 49.8167 -77.6333 50° Northeast 500 575 35,000  Level Montreal Center
Fri 11:22:55 AM 49.9000 -77.4833 49° Northeast 500 575 35,000  Level Montreal Center
Fri 11:23:55 AM 49.9833 -77.3333 49° Northeast 500 575 35,000  Level Montreal Center
Fri 11:24:55 AM 50.0833 -77.1500 50° Northeast 500 575 35,000  Level Montreal Center
Fri 11:25:55 AM 50.1667 -76.9833 52° Northeast 500 575 35,000  Level Montreal Center
Fri 11:26:55 AM 50.2667 -76.8333 44° Northeast 500 575 35,000  Level Montreal Center
Fri 11:27:55 AM 50.3667 -76.6500 49° Northeast 500 575 35,000  Level Montreal Center
Fri 11:28:55 AM 50.4667 -76.5000 44° Northeast 500 575 35,000  Level Montreal Center
Fri 11:29:55 AM 50.5500 -76.3333 52° Northeast 500 575 35,000  Level Montreal Center
Fri 11:30:55 AM 50.6333 -76.1500 54° Northeast 500 575 35,000  Level Montreal Center
Fri 11:31:55 AM 50.7333 -76.0000 43° Northeast 510 587 35,000  Level Montreal Center
Fri 11:32:55 AM 50.8167 -75.8000 57° Northeast 510 587 35,000  Level Montreal Center
Fri 11:33:55 AM 50.9167 -75.6167 49° Northeast 510 587 35,000  Level Montreal Center
Fri 11:34:55 AM 51.0000 -75.4500 51° Northeast 510 587 35,000  Level Montreal Center
Fri 11:35:55 AM 51.1000 -75.2667 49° Northeast 510 587 35,000  Level Montreal Center
Fri 11:36:55 AM 51.1833 -75.1000 51° Northeast 510 587 35,000  Level Montreal Center
Fri 11:37:55 AM 51.2667 -74.9500 48° Northeast 510 587 35,000  Level Montreal Center
Fri 11:38:55 AM 51.3667 -74.7500 51° Northeast 510 587 35,000  Level Montreal Center
Fri 11:39:55 AM 51.4500 -74.5833 51° Northeast 510 587 35,000  Level Montreal Center
Fri 11:40:55 AM 51.5500 -74.4000 49° Northeast 510 587 35,000 100 Level Montreal Center
Fri 11:41:55 AM 51.6333 -74.2333 51° Northeast 510 587 35,200 1,000 Climbing Montreal Center
Fri 11:42:55 AM 51.7167 -74.0333 56° Northeast 510 587 37,000 900 Climbing Montreal Center
Fri 11:43:55 AM 51.8000 -73.8667 51° Northeast 510 587 37,000  Level Montreal Center
Fri 11:44:55 AM 51.8833 -73.6667 56° Northeast 510 587 37,000  Level Montreal Center
Fri 11:45:55 AM 51.9833 -73.5000 46° Northeast 500 575 37,000  Level Montreal Center
Fri 11:46:55 AM 52.0667 -73.3333 51° Northeast 500 575 37,000  Level Montreal Center
Fri 11:47:55 AM 52.1667 -73.1333 51° Northeast 500 575 37,000  Level Montreal Center
Fri 11:48:55 AM 52.2333 -72.9333 61° Northeast 500 575 37,000  Level Montreal Center
Fri 11:49:55 AM 52.3333 -72.7667 45° Northeast 500 575 37,000  Level Montreal Center
Fri 11:50:55 AM 52.4167 -72.6000 51° Northeast 500 575 37,000  Level Montreal Center
Fri 11:51:55 AM 52.5000 -72.4000 56° Northeast 500 575 37,000  Level Montreal Center
Fri 11:52:55 AM 52.5833 -72.2167 53° Northeast 510 587 37,000  Level Montreal Center
Fri 11:53:55 AM 52.6667 -72.0167 55° Northeast 510 587 37,000  Level Montreal Center
Fri 11:54:55 AM 52.7500 -71.8500 50° Northeast 510 587 37,000  Level Montreal Center
Fri 11:55:55 AM 52.8333 -71.6500 55° Northeast 510 587 37,000  Level Montreal Center
Fri 11:56:55 AM 52.9333 -71.4667 48° Northeast 510 587 37,000  Level Montreal Center
Fri 11:57:55 AM 53.0167 -71.2667 55° Northeast 510 587 37,000  Level Montreal Center
Fri 11:58:55 AM 53.1000 -71.0833 53° Northeast 520 598 37,000  Level Montreal Center
Fri 11:59:55 AM 53.1833 -70.8833 55° Northeast 520 598 37,000  Level Montreal Center
Fri 12:00:55 PM 53.2667 -70.6667 57° Northeast 520 598 37,000  Level Montreal Center
Fri 12:01:55 PM 53.3667 -70.4500 52° Northeast 520 598 37,000  Level Montreal Center
Fri 12:02:55 PM 53.4333 -70.2833 56° Northeast 520 598 37,000  Level Montreal Center
Fri 12:03:55 PM 53.5333 -70.0667 52° Northeast 520 598 37,000  Level Montreal Center
Fri 12:04:55 PM 53.6000 -69.8500 63° Northeast 530 610 37,000  Level Montreal Center
Fri 12:05:55 PM 53.7000 -69.6667 47° Northeast 530 610 37,000  Level Montreal Center
Fri 12:06:55 PM 53.7833 -69.4667 55° Northeast 530 610 37,000  Level Montreal Center
Fri 12:07:55 PM 53.8667 -69.2500 57° Northeast 530 610 37,000  Level Montreal Center
Fri 12:08:55 PM 53.9500 -69.0333 57° Northeast 540 621 37,000  Level Montreal Center
Fri 12:09:55 PM 54.0333 -68.8500 52° Northeast 530 610 37,000  Level Montreal Center
Fri 12:10:55 PM 54.1167 -68.6333 57° Northeast 530 610 37,000  Level Montreal Center
Fri 12:11:55 PM 54.2000 -68.4167 57° Northeast 540 621 37,000  Level Montreal Center
Fri 12:12:55 PM 54.2833 -68.2000 57° Northeast 540 621 37,000  Level Montreal Center
Fri 12:13:55 PM 54.3667 -67.9667 58° Northeast 540 621 37,000  Level Montreal Center
Fri 12:14:55 PM 54.4500 -67.7500 56° Northeast 540 621 37,000  Level Montreal Center
Fri 12:15:56 PM 54.5333 -67.5333 56° Northeast 540 621 37,000  Level Montreal Center
Fri 12:16:55 PM 54.6167 -67.3167 56° Northeast 540 621 37,000  Level Montreal Center
Fri 12:17:55 PM 54.7000 -67.0833 58° Northeast 540 621 37,000  Level Montreal Center
Fri 12:18:55 PM 54.7667 -66.9000 58° Northeast 520 598 37,000  Level Montreal Center
Fri 12:19:55 PM 54.8500 -66.6667 58° Northeast 540 621 37,000  Level Montreal Center
Fri 12:20:55 PM 54.9333 -66.4500 56° Northeast 530 610 37,000  Level Montreal Center
Fri 12:21:55 PM 55.0167 -66.2167 58° Northeast 570 656 37,000  Level Montreal Center
Fri 12:22:55 PM 55.0833 -66.0000 62° Northeast 540 621 37,000  Level Montreal Center
Fri 12:23:55 PM 55.1833 -65.7333 57° Northeast 550 633 37,000  Level Montreal Center
Fri 12:24:55 PM 55.2500 -65.5167 62° Northeast 560 644 37,000  Level Montreal Center
Fri 12:25:55 PM 55.3333 -65.2833 58° Northeast 560 644 37,000  Level Montreal Center
Fri 12:26:55 PM 55.4167 -65.0500 58° Northeast 560 644 37,000  Level Montreal Center
Fri 12:27:55 PM 55.5000 -64.8167 58° Northeast 550 633 37,000  Level Montreal Center
Fri 12:28:55 PM 55.5833 -64.5833 58° Northeast 550 633 37,000  Level Montreal Center
Fri 12:29:55 PM 55.6500 -64.3500 63° Northeast 550 633 37,000  Level Montreal Center
Fri 12:30:55 PM 55.7333 -64.0833 61° Northeast 550 633 37,000  Level Montreal Center
Fri 12:31:55 PM 55.8167 -63.8500 57° Northeast 560 644 37,000  Level Montreal Center
Fri 12:32:55 PM 55.9000 -63.6167 57° Northeast 560 644 37,000  Level Montreal Center
Fri 12:33:55 PM 55.9667 -63.3667 64° Northeast 560 644 37,000  Level Montreal Center
Fri 12:34:55 PM 56.0333 -63.1333 63° Northeast 570 656 37,000  Level Montreal Center
Fri 12:35:55 PM 56.1167 -62.8667 61° Northeast 560 644 37,000  Level Montreal Center
Fri 12:36:55 PM 56.2000 -62.6167 59° Northeast 570 656 37,000  Level Montreal Center
Fri 12:37:55 PM 56.2833 -62.4167 53° Northeast 560 644 37,000  Level Montreal Center
Fri 12:38:55 PM 56.3500 -62.1667 64° Northeast 560 644 37,000  Level Montreal Center
Fri 12:39:55 PM 56.4333 -61.9000 60° Northeast 570 656 37,000  Level Montreal Center
Fri 12:40:55 PM 56.5000 -61.6500 64° Northeast 570 656 37,000  Level Montreal Center
Fri 12:41:55 PM 56.5667 -61.3667 67° East 570 656 37,000  Level Montreal Center
Fri 12:42:55 PM 56.6500 -61.1333 57° Northeast 570 656 37,000  Level Montreal Center
Fri 12:43:55 PM 56.7167 -60.8833 64° Northeast 570 656 37,000  Level Montreal Center
Fri 12:44:55 PM 56.7833 -60.6000 67° East 580 667 37,000  Level Montreal Center
Fri 12:45:55 PM 56.8500 -60.3500 64° Northeast 580 667 37,000  Level Montreal Center
Fri 12:46:55 PM 56.9500 -60.0667 57° Northeast 580 667 37,000  Level Montreal Center
Fri 12:47:55 PM 57.0167 -59.8167 64° Northeast 580 667 37,000  Level Montreal Center
Fri 12:48:55 PM 57.0833 -59.5333 66° East 580 667 37,000  Level Montreal Center
Fri 12:49:55 PM 57.1500 -59.2833 64° Northeast 580 667 37,000  Level Montreal Center
Fri 12:50:55 PM 57.2167 -59.0000 66° East 590 679 37,000  Level Montreal Center
Fri 12:51:55 PM 57.2500 -58.7000 78° East 580 667 37,000  Level Montreal Center
Fri 12:52:55 PM 57.2833 -58.4167 78° East 580 667 37,000  Level Montreal Center
Fri 12:53:55 PM 57.3167 -58.1167 78° East 590 679 37,000  Level Montreal Center
Fri 12:55:09 PM 57.3500 -57.8167 78° East 580 667 37,000  Level Gander Center
Fri 12:56:09 PM 57.3833 -57.5000 79° East 580 667 37,000  Level Gander Center
Fri 12:57:09 PM 57.4167 -57.2167 78° East 590 679 37,000  Level Gander Center
Fri 12:58:09 PM 57.4667 -56.9000 74° East 610 702 37,000  Level Gander Center
Fri 12:59:09 PM 57.4833 -56.6333 83° East 580 667 37,000  Level Gander Center
Fri 01:00:09 PM 57.5167 -56.3500 78° East 580 667 37,000  Level Gander Center
Fri 01:01:09 PM 57.5500 -56.0333 79° East 580 667 37,000  Level Gander Center
Fri 01:02:09 PM 57.5667 -55.7167 84° East 590 679 37,000  Level Gander Center
Fri 01:03:09 PM 57.6000 -55.4333 78° East 590 679 37,000  Level Gander Center
Fri 01:04:09 PM 57.6167 -55.1167 84° East 590 679 37,000  Level Gander Center
Fri 01:05:09 PM 57.6667 -54.8167 73° East 590 679 37,000  Level Gander Center
Fri 01:07:00 PM 57.7040 -54.3934 81° East  Level FlightAware Approximate
Fri 01:14:00 PM 57.8447 -52.5877 81° East  Level FlightAware Approximate
Fri 01:15:00 PM 57.8627 -52.3287 82° East  Level FlightAware Approximate
Fri 01:16:00 PM 57.8801 -52.0694 83° East  Level FlightAware Approximate
Fri 01:17:00 PM 57.8970 -51.8098 83° East  Level FlightAware Approximate
Fri 01:18:00 PM 57.9134 -51.5500 83° East  Level FlightAware Approximate
Fri 01:19:00 PM 57.9293 -51.2900 83° East  Level FlightAware Approximate
Fri 01:20:00 PM 57.9446 -51.0297 84° East  Level FlightAware Approximate
Fri 01:21:00 PM 57.9594 -50.7692 84° East  Level FlightAware Approximate
Fri 01:22:00 PM 57.9737 -50.5085 84° East  Level FlightAware Approximate
Fri 01:23:00 PM 57.9875 -50.2476 84° East  Level FlightAware Approximate
Fri 01:24:00 PM 57.9992 -49.9866 97° East  Level FlightAware Approximate
Fri 01:25:00 PM 57.9826 -49.7262 97° East  Level FlightAware Approximate
Fri 01:26:00 PM 57.9655 -49.4660 97° East  Level FlightAware Approximate
Fri 01:27:00 PM 57.9479 -49.2066 97° East  Level FlightAware Approximate
Fri 01:28:00 PM 57.9298 -48.9473 97° East  Level FlightAware Approximate
Fri 01:29:00 PM 57.9112 -48.6884 98° East  Level FlightAware Approximate
Fri 01:30:00 PM 57.8920 -48.4297 98° East  Level FlightAware Approximate
Fri 01:31:00 PM 57.8723 -48.1713 98° East  Level FlightAware Approximate
Fri 01:32:00 PM 57.8521 -47.9132 98° East  Level FlightAware Approximate
Fri 01:33:00 PM 57.8313 -47.6554 98° East  Level FlightAware Approximate
Fri 01:34:00 PM 57.8101 -47.3979 99° East  Level FlightAware Approximate
Fri 01:35:00 PM 57.7883 -47.1407 99° East  Level FlightAware Approximate
Fri 01:36:00 PM 57.7670 -46.8834 99° East  Level FlightAware Approximate
Fri 01:37:00 PM 57.7454 -46.6265 99° East  Level FlightAware Approximate
Fri 01:38:00 PM 57.7234 -46.3698 99° East  Level FlightAware Approximate
Fri 01:39:00 PM 57.7008 -46.1134 99° East  Level FlightAware Approximate
Fri 01:40:00 PM 57.6777 -45.8574 99° East  Level FlightAware Approximate
Fri 01:41:00 PM 57.6541 -45.6017 100° East  Level FlightAware Approximate
Fri 01:42:00 PM 57.6300 -45.3463 100° East  Level FlightAware Approximate
Fri 01:43:00 PM 57.6053 -45.0913 100° East  Level FlightAware Approximate
Fri 01:44:00 PM 57.5802 -44.8366 100° East  Level FlightAware Approximate
Fri 01:45:00 PM 57.5545 -44.5823 101° East  Level FlightAware Approximate
Fri 01:46:00 PM 57.5284 -44.3284 101° East  Level FlightAware Approximate
Fri 01:47:00 PM 57.5010 -44.0750 102° East  Level FlightAware Approximate
Fri 01:48:00 PM 57.4726 -43.8223 102° East  Level FlightAware Approximate
Fri 01:49:00 PM 57.4437 -43.5699 102° East  Level FlightAware Approximate
Fri 01:50:00 PM 57.4142 -43.3180 102° East  Level FlightAware Approximate
Fri 01:51:00 PM 57.3843 -43.0664 102° East  Level FlightAware Approximate
Fri 01:52:00 PM 57.3539 -42.8153 103° East  Level FlightAware Approximate
Fri 01:53:00 PM 57.3249 -42.5639 102° East  Level FlightAware Approximate
Fri 01:54:00 PM 57.2956 -42.3127 102° East  Level FlightAware Approximate
Fri 01:55:00 PM 57.2658 -42.0619 102° East  Level FlightAware Approximate
Fri 01:56:00 PM 57.2355 -41.8115 102° East  Level FlightAware Approximate
Fri 01:57:00 PM 57.2048 -41.5615 103° East  Level FlightAware Approximate
Fri 01:58:00 PM 57.1735 -41.3120 103° East  Level FlightAware Approximate
Fri 01:59:00 PM 57.1417 -41.0629 103° East  Level FlightAware Approximate
Fri 02:00:00 PM 57.1095 -40.8142 103° East  Level FlightAware Approximate
Fri 02:01:00 PM 57.0767 -40.5659 104° East  Level FlightAware Approximate
Fri 02:02:00 PM 57.0435 -40.3181 104° East  Level FlightAware Approximate
Fri 02:03:00 PM 57.0098 -40.0708 104° East  Level FlightAware Approximate
Fri 02:04:00 PM 56.9894 -39.8192 96° East  Level FlightAware Approximate
Fri 02:05:00 PM 56.9741 -39.5661 96° East  Level FlightAware Approximate
Fri 02:06:00 PM 56.9583 -39.3132 96° East  Level FlightAware Approximate
Fri 02:07:00 PM 56.9420 -39.0604 97° East  Level FlightAware Approximate
Fri 02:08:00 PM 56.9251 -38.8079 97° East  Level FlightAware Approximate
Fri 02:09:00 PM 56.9078 -38.5557 97° East  Level FlightAware Approximate
Fri 02:10:00 PM 56.8900 -38.3037 97° East  Level FlightAware Approximate
Fri 02:11:00 PM 56.8716 -38.0519 97° East  Level FlightAware Approximate
Fri 02:12:00 PM 56.8527 -37.8004 98° East  Level FlightAware Approximate
Fri 02:13:00 PM 56.8334 -37.5491 98° East  Level FlightAware Approximate
Fri 02:14:00 PM 56.8135 -37.2981 98° East  Level FlightAware Approximate
Fri 02:15:00 PM 56.7932 -37.0473 98° East  Level FlightAware Approximate
Fri 02:16:00 PM 56.7723 -36.7969 99° East  Level FlightAware Approximate
Fri 02:17:00 PM 56.7509 -36.5467 99° East  Level FlightAware Approximate
Fri 02:18:00 PM 56.7290 -36.2968 99° East  Level FlightAware Approximate
Fri 02:19:00 PM 56.7067 -36.0472 99° East  Level FlightAware Approximate
Fri 02:20:00 PM 56.6838 -35.7979 99° East  Level FlightAware Approximate
Fri 02:21:00 PM 56.6604 -35.5489 100° East  Level FlightAware Approximate
Fri 02:22:00 PM 56.6366 -35.3002 100° East  Level FlightAware Approximate
Fri 02:23:00 PM 56.6122 -35.0518 100° East  Level FlightAware Approximate
Fri 02:24:00 PM 56.5874 -34.8038 100° East  Level FlightAware Approximate
Fri 02:25:00 PM 56.5620 -34.5561 100° East  Level FlightAware Approximate
Fri 02:26:00 PM 56.5362 -34.3087 101° East  Level FlightAware Approximate
Fri 02:27:00 PM 56.5098 -34.0617 101° East  Level FlightAware Approximate
Fri 02:28:00 PM 56.4830 -33.8150 101° East  Level FlightAware Approximate
Fri 02:29:00 PM 56.4557 -33.5686 101° East  Level FlightAware Approximate
Fri 02:30:00 PM 56.4279 -33.3227 101° East  Level FlightAware Approximate
Fri 02:31:00 PM 56.3996 -33.0770 102° East  Level FlightAware Approximate
Fri 02:32:00 PM 56.3709 -32.8318 102° East  Level FlightAware Approximate
Fri 02:33:00 PM 56.3416 -32.5869 102° East  Level FlightAware Approximate
Fri 02:34:00 PM 56.3119 -32.3424 102° East  Level FlightAware Approximate
Fri 02:35:00 PM 56.2817 -32.0983 102° East  Level FlightAware Approximate
Fri 02:36:00 PM 56.2510 -31.8546 103° East  Level FlightAware Approximate
Fri 02:37:00 PM 56.2198 -31.6112 103° East  Level FlightAware Approximate
Fri 02:38:00 PM 56.1882 -31.3683 103° East  Level FlightAware Approximate
Fri 02:39:00 PM 56.1561 -31.1258 103° East  Level FlightAware Approximate
Fri 02:40:00 PM 56.1235 -30.8836 103° East  Level FlightAware Approximate
Fri 02:41:00 PM 56.0904 -30.6419 104° East  Level FlightAware Approximate
Fri 02:42:00 PM 56.0569 -30.4006 104° East  Level FlightAware Approximate
Fri 02:43:00 PM 56.0228 -30.1597 104° East  Level FlightAware Approximate
Fri 02:44:00 PM 56.0033 -29.9169 86° East  Level FlightAware Approximate
Fri 02:45:00 PM 56.0130 -29.6692 86° East  Level FlightAware Approximate
Fri 02:46:00 PM 56.0221 -29.4214 86° East  Level FlightAware Approximate
Fri 02:47:00 PM 56.0307 -29.1736 86° East  Level FlightAware Approximate
Fri 02:48:00 PM 56.0389 -28.9256 87° East  Level FlightAware Approximate
Fri 02:49:00 PM 56.0465 -28.6775 87° East  Level FlightAware Approximate
Fri 02:50:00 PM 56.0536 -28.4293 87° East  Level FlightAware Approximate
Fri 02:51:00 PM 56.0603 -28.1810 87° East  Level FlightAware Approximate
Fri 02:52:00 PM 56.0664 -27.9327 87° East  Level FlightAware Approximate
Fri 02:53:00 PM 56.0721 -27.6842 88° East  Level FlightAware Approximate
Fri 02:54:00 PM 56.0772 -27.4357 88° East  Level FlightAware Approximate
Fri 02:55:00 PM 56.0819 -27.1872 88° East  Level FlightAware Approximate
Fri 02:56:00 PM 56.0860 -26.9386 88° East  Level FlightAware Approximate
Fri 02:57:00 PM 56.0897 -26.6899 88° East  Level FlightAware Approximate
Fri 02:58:00 PM 56.0928 -26.4412 89° East  Level FlightAware Approximate
Fri 02:59:00 PM 56.0955 -26.1924 89° East  Level FlightAware Approximate
Fri 03:00:00 PM 56.0976 -25.9436 89° East  Level FlightAware Approximate
Fri 03:01:00 PM 56.0993 -25.6948 89° East  Level FlightAware Approximate
Fri 03:02:00 PM 56.1004 -25.4460 89° East  Level FlightAware Approximate
Fri 03:03:00 PM 56.1011 -25.1972 90° East  Level FlightAware Approximate
Fri 03:04:00 PM 56.1012 -24.9483 90° East  Level FlightAware Approximate
Fri 03:05:00 PM 56.1008 -24.6995 90° East  Level FlightAware Approximate
Fri 03:06:00 PM 56.1000 -24.4506 90° East  Level FlightAware Approximate
Fri 03:07:00 PM 56.0986 -24.2018 90° East  Level FlightAware Approximate
Fri 03:08:00 PM 56.0968 -23.9530 91° East  Level FlightAware Approximate
Fri 03:09:00 PM 56.0944 -23.7043 91° East  Level FlightAware Approximate
Fri 03:10:00 PM 56.0916 -23.4555 91° East  Level FlightAware Approximate
Fri 03:11:00 PM 56.0882 -23.2068 91° East  Level FlightAware Approximate
Fri 03:12:00 PM 56.0844 -22.9582 91° East  Level FlightAware Approximate
Fri 03:13:00 PM 56.0800 -22.7096 92° East  Level FlightAware Approximate
Fri 03:14:00 PM 56.0751 -22.4610 92° East  Level FlightAware Approximate
Fri 03:15:00 PM 56.0698 -22.2126 92° East  Level FlightAware Approximate
Fri 03:16:00 PM 56.0639 -21.9642 92° East  Level FlightAware Approximate
Fri 03:17:00 PM 56.0576 -21.7158 93° East  Level FlightAware Approximate
Fri 03:18:00 PM 56.0508 -21.4676 93° East  Level FlightAware Approximate
Fri 03:19:00 PM 56.0434 -21.2194 93° East  Level FlightAware Approximate
Fri 03:20:00 PM 56.0355 -20.9714 93° East  Level FlightAware Approximate
Fri 03:21:00 PM 56.0272 -20.7235 93° East  Level FlightAware Approximate
Fri 03:22:00 PM 56.0184 -20.4756 94° East  Level FlightAware Approximate
Fri 03:23:00 PM 56.0090 -20.2279 94° East  Level FlightAware Approximate
Fri 03:24:00 PM 55.9975 -19.9808 103° East  Level FlightAware Approximate
Fri 03:25:00 PM 55.9652 -19.7395 103° East  Level FlightAware Approximate
Fri 03:26:00 PM 55.9325 -19.4986 104° East  Level FlightAware Approximate
Fri 03:27:00 PM 55.8993 -19.2582 104° East  Level FlightAware Approximate
Fri 03:28:00 PM 55.8656 -19.0181 104° East  Level FlightAware Approximate
Fri 03:29:00 PM 55.8315 -18.7785 104° East  Level FlightAware Approximate
Fri 03:30:00 PM 55.7969 -18.5393 104° East  Level FlightAware Approximate
Fri 03:31:00 PM 55.7618 -18.3005 105° East  Level FlightAware Approximate
Fri 03:32:00 PM 55.7263 -18.0622 105° East  Level FlightAware Approximate
Fri 03:33:00 PM 55.6903 -17.8243 105° East  Level FlightAware Approximate
Fri 03:34:00 PM 55.6538 -17.5868 105° East  Level FlightAware Approximate
Fri 03:35:00 PM 55.6169 -17.3498 105° East  Level FlightAware Approximate
Fri 03:36:00 PM 55.5796 -17.1132 106° East  Level FlightAware Approximate
Fri 03:37:00 PM 55.5417 -16.8771 106° East  Level FlightAware Approximate
Fri 03:38:00 PM 55.5035 -16.6414 106° East  Level FlightAware Approximate
Fri 03:39:00 PM 55.4647 -16.4062 106° East  Level FlightAware Approximate
Fri 03:40:00 PM 55.4256 -16.1715 106° East  Level FlightAware Approximate
Fri 03:41:00 PM 55.3860 -15.9372 106° East  Level FlightAware Approximate
Fri 03:42:00 PM 55.3459 -15.7034 107° East  Level FlightAware Approximate
Fri 03:43:00 PM 55.3054 -15.4701 107° East  Level FlightAware Approximate
Fri 03:44:00 PM 55.2644 -15.2372 107° East  Level FlightAware Approximate
Fri 03:45:00 PM 55.2230 -15.0048 107° East  Level FlightAware Approximate
Fri 03:46:00 PM 55.1812 -14.7730 107° East  Level FlightAware Approximate
Fri 03:47:00 PM 55.1389 -14.5416 108° East  Level FlightAware Approximate
Fri 03:48:00 PM 55.0962 -14.3107 108° East  Level FlightAware Approximate
Fri 03:49:00 PM 55.0531 -14.0803 108° East  Level FlightAware Approximate
Fri 03:50:00 PM 55.0095 -13.8504 108° East  Level FlightAware Approximate
Fri 03:51:00 PM 54.9655 -13.6210 108° East  Level FlightAware Approximate
Fri 03:52:00 PM 54.9210 -13.3921 109° East  Level FlightAware Approximate
Fri 03:53:00 PM 54.8761 -13.1637 109° East  Level FlightAware Approximate
Fri 03:54:00 PM 54.8308 -12.9358 109° East  Level FlightAware Approximate
Fri 03:55:00 PM 54.7851 -12.7084 109° East  Level FlightAware Approximate
Fri 03:56:00 PM 54.7390 -12.4816 109° East  Level FlightAware Approximate
Fri 03:56:30 PM 54.2330 -10.1251 109° East 463 533 37,000  Level FlightAware ADS-B
Fri 03:57:11 PM 54.1846 -10.0022 124° Southeast 463 533 37,000  Level FlightAware ADS-B
Fri 03:57:43 PM 54.2469 -10.1601 304° West 463 533 37,000  Level FlightAware ADS-B
Fri 04:00:10 PM 53.9681 -9.4627 112° Southeast 467 537 37,000  Level FlightAware ADS-B (KHQM)
Fri 04:00:41 PM 53.9300 -9.3687 125° Southeast 468 539 37,000  Level FlightAware ADS-B (KHQM)
Fri 04:01:15 PM 53.8907 -9.2717 124° Southeast 469 540 37,000  Level FlightAware ADS-B
Fri 04:01:51 PM 53.8456 -9.1614 125° Southeast 470 541 37,000  Level FlightAware ADS-B (KHQM)
Fri 04:02:31 PM 53.7951 -9.0387 125° Southeast 471 542 37,000  Level FlightAware ADS-B (KHQM)
Fri 04:03:01 PM 53.7580 -8.9490 125° Southeast 471 542 37,000  Level FlightAware ADS-B (KHQM)
Fri 04:03:18 PM 53.7359 -8.8955 125° Southeast 467 537 37,000  Level FlightAware ADS-B
Fri 04:03:49 PM 53.6991 -8.8067 125° Southeast 470 541 37,000  Level FlightAware ADS-B (KHQM)
Fri 04:04:01 PM 53.6828 -8.7680 125° Southeast 466 536 37,000  Level FlightAware ADS-B
Fri 04:04:41 PM 53.6339 -8.6508 125° Southeast 470 541 37,000  Level FlightAware ADS-B (KHQM)
Fri 04:05:11 PM 53.5973 -8.5638 125° Southeast 470 541 37,000  Level FlightAware ADS-B (KHQM)
Fri 04:05:43 PM 53.5559 -8.4650 125° Southeast 469 540 37,000  Level FlightAware ADS-B
Fri 04:05:54 PM 53.5419 -8.4318 126° Southeast 469 540 37,000  Level FlightAware ADS-B
Fri 04:06:27 PM 53.5015 -8.3364 125° Southeast 469 540 37,000  Level FlightAware ADS-B
Fri 04:07:01 PM 53.4593 -8.2372 126° Southeast 469 540 37,000  Level FlightAware ADS-B (KHQM)
Fri 04:07:31 PM 53.4207 -8.1464 125° Southeast 469 540 37,000  Level FlightAware ADS-B (KHQM)
Fri 04:08:09 PM 53.3719 -8.0329 126° Southeast 469 540 37,000  Level FlightAware ADS-B
Fri 04:08:41 PM 53.3333 -7.9430 126° Southeast 469 540 37,000  Level FlightAware ADS-B (KHQM)
Fri 04:09:17 PM 53.2866 -7.8346 126° Southeast 469 540 37,000  Level FlightAware ADS-B
Fri 04:09:48 PM 53.2478 -7.7454 126° Southeast 468 539 37,000  Level FlightAware ADS-B
Fri 04:10:19 PM 53.2085 -7.6549 126° Southeast 468 539 37,000  Level FlightAware ADS-B (EPBY / BZG)
Fri 04:10:49 PM 53.1793 -7.5881 126° Southeast 468 539 37,000  Level FlightAware ADS-B (EPBY / BZG)
Fri 04:11:20 PM 53.1304 -7.4767 126° Southeast 467 537 37,000  Level FlightAware ADS-B
Fri 04:11:50 PM 53.0914 -7.3883 126° Southeast 466 536 37,000  Level FlightAware ADS-B
Fri 04:12:21 PM 53.0532 -7.3017 126° Southeast 466 536 37,000  Level FlightAware ADS-B
Fri 04:12:51 PM 53.0152 -7.2163 126° Southeast 466 536 37,000  Level FlightAware ADS-B
Fri 04:13:23 PM 52.9747 -7.1252 126° Southeast 466 536 37,000  Level FlightAware ADS-B
Fri 04:13:53 PM 52.9354 -7.0371 127° Southeast 465 535 37,000  Level FlightAware ADS-B
Fri 04:14:23 PM 52.8983 -6.9545 127° Southeast 464 534 37,000  Level FlightAware ADS-B
Fri 04:14:54 PM 52.8578 -6.8649 127° Southeast 464 534 37,000  Level FlightAware ADS-B
Fri 04:15:24 PM 52.8182 -6.7770 127° Southeast 463 533 37,000  Level FlightAware ADS-B
Fri 04:15:56 PM 52.7781 -6.6889 127° Southeast 464 534 37,000  Level FlightAware ADS-B
Fri 04:16:26 PM 52.7471 -6.6201 127° Southeast 463 533 37,000  Level FlightAware ADS-B (EGCW)
Fri 04:16:56 PM 52.7005 -6.5185 127° Southeast 461 531 37,000  Level FlightAware ADS-B
Fri 04:17:26 PM 52.6616 -6.4335 127° Southeast 461 531 37,000  Level FlightAware ADS-B
Fri 04:17:58 PM 52.6226 -6.3492 127° Southeast 462 532 37,000  Level FlightAware ADS-B (EPBY / BZG)
Fri 04:18:30 PM 52.5808 -6.2588 127° Southeast 463 533 37,000  Level FlightAware ADS-B
Fri 04:19:02 PM 52.5394 -6.1694 127° Southeast 464 534 37,000  Level FlightAware ADS-B (EGCW)
Fri 04:19:32 PM 52.5020 -6.0876 127° Southeast 468 539 37,000  Level FlightAware ADS-B (EGCW)
Fri 04:19:53 PM 52.4789 -6.0299 123° Southeast 474 545 37,000  Level FlightAware ADS-B
Fri 04:20:05 PM 52.4649 -5.9910 121° Southeast 479 551 37,000  Level FlightAware ADS-B (EGCW)
Fri 04:20:35 PM 52.4342 -5.8909 117° Southeast 481 554 37,000  Level FlightAware ADS-B
Fri 04:21:05 PM 52.4043 -5.7894 116° Southeast 481 554 37,000  Level FlightAware ADS-B
Fri 04:21:39 PM 52.3716 -5.6784 116° Southeast 481 554 37,000  Level FlightAware ADS-B
Fri 04:22:09 PM 52.3440 -5.5851 116° Southeast 480 552 37,000  Level FlightAware ADS-B (EPBY / BZG)
Fri 04:22:42 PM 52.3116 -5.4765 116° Southeast 480 552 37,000  Level FlightAware ADS-B (EGCW)
Fri 04:23:12 PM 52.2814 -5.3752 116° Southeast 479 551 37,000  Level FlightAware ADS-B (EGCW)
Fri 04:23:42 PM 52.2520 -5.2779 116° Southeast 480 552 37,000  Level FlightAware ADS-B (EGCW)
Fri 04:24:12 PM 52.2233 -5.1828 116° Southeast 480 552 37,000  Level FlightAware ADS-B (EGCW)
Fri 04:24:43 PM 52.1911 -5.0767 116° Southeast 481 554 37,000  Level FlightAware ADS-B
Fri 04:24:48 PM 52.1869 -5.0632 116° Southeast 480 552 37,000  Level FlightAware ADS-B
Fri 04:25:18 PM 52.1580 -4.9675 116° Southeast 480 552 37,000  Level FlightAware ADS-B
Fri 04:25:49 PM 52.1288 -4.8724 117° Southeast 475 547 37,000  Level FlightAware ADS-B (EPBY / BZG)
Fri 04:25:55 PM 52.1265 -4.8654 117° Southeast 475 547 37,000  Level FlightAware ADS-B (EPBY / BZG)
Fri 04:26:04 PM 52.1114 -4.8173 117° Southeast 471 542 37,000  Level FlightAware ADS-B (EGSP)
Fri 04:26:36 PM 52.0809 -4.7203 117° Southeast 468 539 37,000  Level FlightAware ADS-B
Fri 04:27:06 PM 52.0536 -4.6345 117° Southeast 468 539 37,000  Level FlightAware ADS-B (EGDX / DGX)
Fri 04:27:42 PM 52.0167 -4.5181 117° Southeast 468 539 37,000  Level FlightAware ADS-B (EGCW)
Fri 04:27:55 PM 52.0026 -4.4738 117° Southeast 468 539 37,000  Level FlightAware ADS-B
Fri 04:28:17 PM 51.9880 -4.4278 117° Southeast 468 539 37,000  Level FlightAware ADS-B (EGSP)
Fri 04:28:26 PM 51.9712 -4.3750 117° Southeast 468 539 37,000 -474 Level FlightAware ADS-B
Fri 04:28:55 PM 51.9458 -4.2958 117° Southeast 476 548 36,700 -1,322 Descending FlightAware ADS-B (EGSP)
Fri 04:29:25 PM 51.9125 -4.1916 117° Southeast 475 547 35,700 -2,000 Descending FlightAware ADS-B
Fri 04:29:28 PM 51.9094 -4.1822 118° Southeast 478 550 35,600 -1,935 Descending FlightAware ADS-B
Fri 04:29:56 PM 51.8809 -4.0937 118° Southeast 466 536 34,700 -1,731 Descending FlightAware ADS-B (LKVR)
Fri 04:30:20 PM 51.8572 -4.0210 118° Southeast 459 528 34,100 -1,742 Descending FlightAware ADS-B
Fri 04:30:27 PM 51.8493 -3.9968 118° Southeast 456 525 33,800 -1,565 Descending FlightAware ADS-B
Fri 04:30:43 PM 51.8362 -3.9489 114° Southeast 459 528 33,500 -1,091 Descending FlightAware ADS-B (LKVR)
Fri 04:30:49 PM 51.8323 -3.9286 107° East 461 531 33,400 -1,200 Descending FlightAware ADS-B
Fri 04:30:53 PM 51.8306 -3.9173 104° East 456 525 33,300 -1,000 Descending FlightAware ADS-B
Fri 04:31:01 PM 51.8266 -3.8907 104° East 458 527 33,200 -500 Descending FlightAware ADS-B
Fri 04:31:05 PM 51.8258 -3.8847 103° East 456 525 33,200 -353 Level FlightAware ADS-B (EGDM)
Fri 04:31:18 PM 51.8184 -3.8341 103° East 449 517 33,100 -500 Descending FlightAware ADS-B (EGHH / BOH)
Fri 04:31:29 PM 51.8129 -3.7970 103° East 447 514 33,000 -429 Descending FlightAware ADS-B (EGHH / BOH)
Fri 04:31:32 PM 51.8112 -3.7865 105° East 447 514 33,000  Level FlightAware ADS-B (LKVR)
Fri 04:31:34 PM 51.8103 -3.7806 104° East 449 517 33,000 -600 Level FlightAware ADS-B
Fri 04:31:42 PM 51.8064 -3.7540 103° East 447 514 32,900 -1,091 Descending FlightAware ADS-B (LKVR)
Fri 04:31:45 PM 51.8043 -3.7398 103° East 447 514 32,800 -857 Descending FlightAware ADS-B (KSCH)
Fri 04:31:49 PM 51.8030 -3.7314 105° East 449 517 32,800  Level FlightAware ADS-B (EGCW)
Fri 04:31:53 PM 51.8014 -3.7209 103° East 447 514 32,800 -857 Level FlightAware ADS-B (LKVR)
Fri 04:32:03 PM 51.7966 -3.6892 104° East 447 514 32,600 -1,200 Descending FlightAware ADS-B (LKVR)
Fri 04:32:08 PM 51.7926 -3.6617 103° East 448 516 32,500 -600 Descending FlightAware ADS-B (KSCH)
Fri 04:32:13 PM 51.7916 -3.6553 104° East 448 516 32,500  Level FlightAware ADS-B (LKVR)
Fri 04:32:15 PM 51.7904 -3.6468 103° East 449 517 32,500 -750 Level FlightAware ADS-B
Fri 04:32:21 PM 51.7875 -3.6272 103° East 448 516 32,400 -462 Descending FlightAware ADS-B (LKVR)
Fri 04:32:28 PM 51.7842 -3.6051 103° East 449 517 32,400 -828 Level FlightAware ADS-B (EGHH / BOH)
Fri 04:32:50 PM 51.7741 -3.5342 103° East 453 521 32,000 -1,200 Descending FlightAware ADS-B
Fri 04:32:58 PM 51.7707 -3.5091 102° East 454 522 31,800 -1,135 Descending FlightAware ADS-B
Fri 04:33:27 PM 51.7571 -3.4124 103° East 446 513 31,300 -968 Descending FlightAware ADS-B
Fri 04:33:29 PM 51.7563 -3.4059 102° East 444 511 31,300 -1,125 Level FlightAware ADS-B
Fri 04:33:59 PM 51.7429 -3.3100 103° East 438 504 30,700 -1,200 Descending FlightAware ADS-B
Fri 04:34:04 PM 51.7406 -3.2940 103° East 438 504 30,600 -1,200 Descending FlightAware ADS-B
Fri 04:34:29 PM 51.7291 -3.2140 103° East 434 499 30,100 -1,400 Descending FlightAware ADS-B (EGDM)
Fri 04:34:34 PM 51.7259 -3.1907 103° East 432 497 29,900 -2,000 Descending FlightAware ADS-B (KSCH)
Fri 04:34:38 PM 51.7254 -3.1862 100° East 434 499 29,800 -1,091 Descending FlightAware ADS-B (EGDM)
Fri 04:34:45 PM 51.7224 -3.1649 103° East 433 498 29,700 -1,091 Descending FlightAware ADS-B
Fri 04:34:49 PM 51.7209 -3.1529 101° East 431 496 29,600 -857 Descending FlightAware ADS-B (EGHH / BOH)
Fri 04:34:52 PM 51.7195 -3.1429 102° East 431 496 29,600 -1,091 Level FlightAware ADS-B
Fri 04:35:00 PM 51.7169 -3.1229 102° East 429 494 29,400 -1,500 Descending FlightAware ADS-B (EGKK / LGW)
Fri 04:35:08 PM 51.7132 -3.0940 102° East 429 494 29,200 -1,333 Descending FlightAware ADS-B
Fri 04:35:18 PM 51.7091 -3.0616 101° East 433 498 29,000 -1,200 Descending FlightAware ADS-B
Fri 04:35:43 PM 51.6999 -2.9852 101° East 418 481 28,500 -1,273 Descending FlightAware ADS-B (EGHI / SOU)
Fri 04:35:51 PM 51.6969 -2.9615 102° East 416 479 28,300 -1,500 Descending FlightAware ADS-B
Fri 04:35:59 PM 51.6936 -2.9365 102° East 409 471 28,100 -1,385 Descending FlightAware ADS-B (EGDJ / UPV)
Fri 04:36:04 PM 51.6914 -2.9203 103° East 409 471 28,000 -1,091 Descending FlightAware ADS-B (EGHI / SOU)
Fri 04:36:21 PM 51.6847 -2.8698 102° East 407 468 27,700 -1,200 Descending FlightAware ADS-B
Fri 04:36:34 PM 51.6800 -2.8352 102° East 402 463 27,400 -1,500 Descending FlightAware ADS-B (EGHS)
Fri 04:36:49 PM 51.6742 -2.7917 102° East 396 456 27,000 -1,895 Descending FlightAware ADS-B (EGDM)
Fri 04:36:53 PM 51.6723 -2.7780 103° East 395 455 26,800 -2,000 Descending FlightAware ADS-B
Fri 04:37:10 PM 51.6656 -2.7304 103° East 392 451 26,300 -2,100 Descending FlightAware ADS-B (LKVR)
Fri 04:37:13 PM 51.6641 -2.7191 103° East 392 451 26,100 -2,571 Descending FlightAware ADS-B
Fri 04:37:24 PM 51.6600 -2.6899 103° East 394 453 25,700 -2,250 Descending FlightAware ADS-B
Fri 04:37:29 PM 51.6574 -2.6734 104° East 393 452 25,500 -1,667 Descending FlightAware ADS-B (EGDM)
Fri 04:37:42 PM 51.6520 -2.6379 104° East 389 448 25,200 -1,895 Descending FlightAware ADS-B
Fri 04:37:48 PM 51.6503 -2.6266 104° East 390 449 24,900 -2,143 Descending FlightAware ADS-B (EGHA)
Fri 04:37:56 PM 51.6462 -2.5996 104° East 389 448 24,700 -2,000 Descending FlightAware ADS-B
Fri 04:37:57 PM 51.6459 -2.5969 100° East 389 448 24,600 -1,500 Descending FlightAware ADS-B
Fri 04:38:04 PM 51.6438 -2.5835 104° East 387 445 24,500 -1,714 Descending FlightAware ADS-B (EGKK / LGW)
Fri 04:38:11 PM 51.6399 -2.5571 104° East 387 445 24,200 -2,400 Descending FlightAware ADS-B (EGHH / BOH)
Fri 04:38:19 PM 51.6375 -2.5395 102° East 387 445 23,900 -2,400 Descending FlightAware ADS-B (EGKK / LGW)
Fri 04:38:26 PM 51.6340 -2.5154 103° East 389 448 23,600 -2,077 Descending FlightAware ADS-B
Fri 04:38:45 PM 51.6258 -2.4563 103° East 385 443 23,000 -1,920 Descending FlightAware ADS-B (KSCH)
Fri 04:38:51 PM 51.6242 -2.4439 101° East 384 442 22,800 -1,091 Descending FlightAware ADS-B (EGHS)
Fri 04:38:56 PM 51.6224 -2.4312 103° East 384 442 22,800 -1,548 Level FlightAware ADS-B
Fri 04:39:22 PM 51.6150 -2.3758 102° East 377 434 22,000 -1,742 Descending FlightAware ADS-B
Fri 04:39:27 PM 51.6108 -2.3445 102° East 376 433 21,900 -1,200 Descending FlightAware ADS-B
Fri 04:39:32 PM 51.6091 -2.3315 102° East 375 432 21,800 -1,765 Descending FlightAware ADS-B
Fri 04:39:44 PM 51.6048 -2.2984 102° East 371 427 21,400 -1,895 Descending FlightAware ADS-B (EGDJ / UPV)
Fri 04:39:51 PM 51.6023 -2.2790 102° East 370 426 21,200 -1,200 Descending FlightAware ADS-B
Fri 04:39:54 PM 51.6014 -2.2725 102° East 370 426 21,200 -1,714 Level FlightAware ADS-B
Fri 04:39:58 PM 51.5997 -2.2608 103° East 366 421 21,000 -1,714 Descending FlightAware ADS-B (EGDM)
Fri 04:40:08 PM 51.5961 -2.2383 105° East 363 418 20,800 -1,500 Descending FlightAware ADS-B (EGKK / LGW)
Fri 04:40:14 PM 51.5928 -2.2191 105° East 361 415 20,600 -1,875 Descending FlightAware ADS-B (EGLF / FAB)
Fri 04:40:24 PM 51.5889 -2.1941 104° East 361 415 20,300 -1,714 Descending FlightAware ADS-B
Fri 04:40:35 PM 51.5849 -2.1672 103° East 360 414 20,000 -1,548 Descending FlightAware ADS-B (EGDX / DGX)
Fri 04:40:55 PM 51.5767 -2.1131 104° East 355 409 19,500 -1,742 Descending FlightAware ADS-B
Fri 04:41:06 PM 51.5724 -2.0856 104° East 353 406 19,100 -1,800 Descending FlightAware ADS-B (EGDM)
Fri 04:41:25 PM 51.5648 -2.0369 104° East 351 404 18,600 -1,680 Descending FlightAware ADS-B
Fri 04:41:31 PM 51.5628 -2.0238 104° East 351 404 18,400 -1,846 Descending FlightAware ADS-B
Fri 04:41:38 PM 51.5599 -2.0052 104° East 348 400 18,200 -1,800 Descending FlightAware ADS-B
Fri 04:41:41 PM 51.5592 -2.0012 106° East 353 406 18,100 -2,000 Descending FlightAware ADS-B
Fri 04:41:50 PM 51.5551 -1.9756 105° East 347 399 17,800 -1,600 Descending FlightAware ADS-B
Fri 04:41:56 PM 51.5525 -1.9600 105° East 348 400 17,700 -1,714 Descending FlightAware ADS-B
Fri 04:41:57 PM 51.5520 -1.9566 103° East 346 398 17,600 -2,400 Descending FlightAware ADS-B
Fri 04:42:01 PM 51.5504 -1.9466 104° East 345 397 17,500 -1,333 Descending FlightAware ADS-B (EGHH / BOH)
Fri 04:42:06 PM 51.5485 -1.9352 105° East 345 397 17,400 -1,800 Descending FlightAware ADS-B (EGHI / SOU)
Fri 04:42:11 PM 51.5463 -1.9218 105° East 344 396 17,200 -1,500 Descending FlightAware ADS-B (EGHH / BOH)
Fri 04:42:14 PM 51.5460 -1.9192 102° East 344 396 17,200 -1,800 Level FlightAware ADS-B (EGKK / LGW)
Fri 04:42:21 PM 51.5422 -1.8960 105° East 345 397 16,900 -2,000 Descending FlightAware ADS-B
Fri 04:42:26 PM 51.5403 -1.8845 105° East 342 394 16,800  Descending FlightAware ADS-B (EGHI / SOU)
Fri 04:42:31 PM 51.5386 -1.8737 104° East 344 396 16,900 -1,500 Climbing FlightAware ADS-B
Fri 04:42:34 PM 51.5379 -1.8703 108° East 353 406 16,600 -2,571 Descending FlightAware ADS-B
Fri 04:42:45 PM 51.5327 -1.8384 105° East 340 391 16,300 -1,636 Descending FlightAware ADS-B (EGHH / BOH)
Fri 04:42:56 PM 51.5283 -1.8103 104° East 341 392 16,000 -1,600 Descending FlightAware ADS-B
Fri 04:43:15 PM 51.5211 -1.7650 104° East 338 389 15,500 -1,548 Descending FlightAware ADS-B (EGHH / BOH)
Fri 04:43:27 PM 51.5164 -1.7367 105° East 333 383 15,200 -882 Descending FlightAware ADS-B
Fri 04:43:49 PM 51.5084 -1.6859 104° East 315 362 15,000 -600 Descending FlightAware ADS-B (EGDJ / UPV)
Fri 04:43:57 PM 51.5051 -1.6660 105° East 310 357 14,900 -667 Descending FlightAware ADS-B
Fri 04:43:58 PM 51.5050 -1.6643 98° East 310 357 14,900 -857 Level FlightAware ADS-B (EGHA)
Fri 04:44:04 PM 51.5029 -1.6524 106° East 303 349 14,800 -1,200 Descending FlightAware ADS-B (EGDJ / UPV)
Fri 04:44:08 PM 51.5017 -1.6451 105° East 301 346 14,700 -600 Descending FlightAware ADS-B
Fri 04:44:14 PM 51.4995 -1.6304 104° East 299 344 14,700 -600 Level FlightAware ADS-B
Fri 04:44:28 PM 51.4947 -1.6011 105° East 288 331 14,500 -667 Descending FlightAware ADS-B
Fri 04:44:32 PM 51.4936 -1.5949 106° East 283 326 14,500 -923 Level FlightAware ADS-B
Fri 04:44:41 PM 51.4902 -1.5738 105° East 279 321 14,300 -857 Descending FlightAware ADS-B
Fri 04:44:53 PM 51.4864 -1.5514 105° East 278 320 14,200 -706 Descending FlightAware ADS-B (EGHS)
Fri 04:44:58 PM 51.4844 -1.5403 106° East 278 320 14,100 -1,000 Descending FlightAware ADS-B
Fri 04:45:05 PM 51.4818 -1.5257 106° East 275 316 14,000 -375 Descending FlightAware ADS-B (EGHI / SOU)
Fri 04:45:14 PM 51.4790 -1.5091 105° East 275 316 14,000  Level FlightAware ADS-B
Fri 04:45:23 PM 51.4835 -1.5355 285° West 278 320 14,000  Level FlightAware ADS-B
Fri 04:45:29 PM 51.4742 -1.4797 105° East 278 320 14,000  Level FlightAware ADS-B
Fri 04:45:35 PM 51.4725 -1.4680 103° East 279 321 14,000  Level FlightAware ADS-B (EGDM)
Fri 04:45:45 PM 51.4691 -1.4476 105° East 277 319 14,000  Level FlightAware ADS-B (EGKK / LGW)
Fri 04:45:52 PM 51.4656 -1.4260 104° East 278 320 14,000  Level FlightAware ADS-B (KSCH)
Fri 04:45:59 PM 51.4644 -1.4193 107° East 281 323 14,000  Level FlightAware ADS-B
Fri 04:46:04 PM 51.4619 -1.4040 105° East 279 321 14,000  Level FlightAware ADS-B (KSCH)
Fri 04:46:08 PM 51.4613 -1.4011 107° East 278 320 14,000 -545 Level FlightAware ADS-B
Fri 04:46:26 PM 51.4552 -1.3640 105° East 276 318 13,800 -857 Descending FlightAware ADS-B (EGHI / SOU)
Fri 04:46:29 PM 51.4545 -1.3594 103° East 278 320 13,700 -947 Descending FlightAware ADS-B
Fri 04:46:45 PM 51.4493 -1.3278 105° East 277 319 13,500 -857 Descending FlightAware ADS-B
Fri 04:46:50 PM 51.4485 -1.3226 105° East 277 319 13,400 -857 Descending FlightAware ADS-B (EGKK / LGW)
Fri 04:46:59 PM 51.4447 -1.2990 104° East 276 318 13,300 -857 Descending FlightAware ADS-B
Fri 04:47:11 PM 51.4419 -1.2821 105° East 272 313 13,100 -1,161 Descending FlightAware ADS-B (EGKK / LGW)
Fri 04:47:30 PM 51.4346 -1.2383 105° East 272 313 12,700 -1,200 Descending FlightAware ADS-B
Fri 04:47:31 PM 51.4344 -1.2372 105° East 272 313 12,700 -1,000 Level FlightAware ADS-B
Fri 04:48:00 PM 51.4249 -1.1805 105° East 269 310 12,200 -1,059 Descending FlightAware ADS-B
Fri 04:48:05 PM 51.4236 -1.1731 106° East 269 310 12,100 -1,200 Descending FlightAware ADS-B (EGDM)
Fri 04:48:20 PM 51.4184 -1.1421 105° East 267 307 11,800 -1,000 Descending FlightAware ADS-B (EGHH / BOH)
Fri 04:48:23 PM 51.4177 -1.1386 108° East 267 307 11,800 -1,091 Level FlightAware ADS-B (EGKK / LGW)
Fri 04:48:31 PM 51.4150 -1.1222 105° East 269 310 11,600 -1,500 Descending FlightAware ADS-B
Fri 04:48:43 PM 51.4103 -1.0941 105° East 267 307 11,300 -1,091 Descending FlightAware ADS-B (KSCH)
Fri 04:48:53 PM 51.4080 -1.0807 106° East 267 307 11,200 -800 Descending FlightAware ADS-B (EGHH / BOH)
Fri 04:48:58 PM 51.4061 -1.0690 104° East 268 308 11,100 -400 Descending FlightAware ADS-B
Fri 04:49:23 PM 51.3982 -1.0216 105° East 270 311 11,000 -194 Descending FlightAware ADS-B (EGHA)
Fri 04:49:29 PM 51.3961 -1.0095 106° East 270 311 11,000  Level FlightAware ADS-B
Fri 04:49:33 PM 51.3951 -1.0030 104° East 270 311 11,000  Level FlightAware ADS-B (EGHH / BOH)
Fri 04:49:43 PM 51.3917 -0.9831 105° East 270 311 11,000  Level FlightAware ADS-B (EGHH / BOH)
Fri 04:49:52 PM 51.3887 -0.9652 105° East 272 313 11,000  Level FlightAware ADS-B (EGDM)
Fri 04:49:59 PM 51.3861 -0.9510 107° East 272 313 11,000  Level FlightAware ADS-B
Fri 04:50:07 PM 51.3831 -0.9314 104° East 270 311 11,000  Level FlightAware ADS-B (KSCH)
Fri 04:50:12 PM 51.3822 -0.9268 106° East 271 312 11,000  Level FlightAware ADS-B
Fri 04:50:24 PM 51.3786 -0.9055 105° East 269 310 11,000  Level FlightAware ADS-B (EGKK / LGW)
Fri 04:50:30 PM 51.3764 -0.8925 105° East 270 311 11,000  Level FlightAware ADS-B
Fri 04:50:32 PM 51.3757 -0.8887 107° East 269 310 11,000  Level FlightAware ADS-B (EGKK / LGW)
Fri 04:50:42 PM 51.3729 -0.8720 105° East 269 310 11,000  Level FlightAware ADS-B (EGKK / LGW)
Fri 04:50:56 PM 51.3678 -0.8423 105° East 271 312 11,000  Level FlightAware ADS-B
Fri 04:51:00 PM 51.3664 -0.8338 104° East 270 311 11,000  Level FlightAware ADS-B
Fri 04:51:06 PM 51.3645 -0.8223 105° East 268 308 11,000  Level FlightAware ADS-B (EGHI / SOU)
Fri 04:51:28 PM 51.3573 -0.7802 105° East 268 308 11,000  Level FlightAware ADS-B
Fri 04:51:34 PM 51.3556 -0.7706 106° East 266 306 11,000  Level FlightAware ADS-B (EGKK / LGW)
Fri 04:51:57 PM 51.3479 -0.7247 105° East 269 310 11,000  Level FlightAware ADS-B
Fri 04:51:59 PM 51.3474 -0.7220 108° East 268 308 11,000  Level FlightAware ADS-B
Fri 04:52:02 PM 51.3465 -0.7167 105° East 268 308 11,000  Level FlightAware ADS-B (EGKK / LGW)
Fri 04:52:11 PM 51.3436 -0.7002 106° East 269 310 11,000  Level FlightAware ADS-B (EGKK / LGW)
Fri 04:52:21 PM 51.3391 -0.6739 105° East 271 312 11,000  Level FlightAware ADS-B (KSCH)
Fri 04:52:28 PM 51.3378 -0.6660 105° East 274 315 11,000  Level FlightAware ADS-B
Fri 04:52:33 PM 51.3350 -0.6500 106° East 272 313 11,000  Level FlightAware ADS-B (KSCH)
Fri 04:52:38 PM 51.3343 -0.6461 106° East 274 315 11,000  Level FlightAware ADS-B
Fri 04:52:46 PM 51.3316 -0.6295 105° East 271 312 11,000  Level FlightAware ADS-B (EGHI / SOU)
Fri 04:52:54 PM 51.3291 -0.6154 106° East 272 313 11,000  Level FlightAware ADS-B
Fri 04:52:57 PM 51.3271 -0.6030 105° East 270 311 11,000  Level FlightAware ADS-B (KSCH)
Fri 04:53:08 PM 51.3245 -0.5885 106° East 270 311 11,000  Level FlightAware ADS-B (EGHI / SOU)
Fri 04:53:17 PM 51.3213 -0.5691 105° East 271 312 11,000  Level FlightAware ADS-B (EGLC / LCY)
Fri 04:53:21 PM 51.3203 -0.5632 106° East 269 310 11,000  Level FlightAware ADS-B (EGHH / BOH)
Fri 04:53:24 PM 51.3192 -0.5567 105° East 271 312 11,000  Level FlightAware ADS-B
Fri 04:53:28 PM 51.3180 -0.5498 106° East 269 310 11,000  Level FlightAware ADS-B (EGKK / LGW)
Fri 04:53:34 PM 51.3149 -0.5325 106° East 270 311 11,000  Level FlightAware ADS-B (KSCH)
Fri 04:53:39 PM 51.3139 -0.5267 106° East 273 314 11,000  Level FlightAware ADS-B
Fri 04:53:49 PM 51.3111 -0.5098 105° East 275 316 11,000  Level FlightAware ADS-B
Fri 04:53:54 PM 51.3091 -0.4982 106° East 275 316 11,000  Level FlightAware ADS-B
Fri 04:53:58 PM 51.3075 -0.4896 106° East 275 316 11,000  Level FlightAware ADS-B
Fri 04:54:03 PM 51.3062 -0.4813 104° East 278 320 11,000  Level FlightAware ADS-B
Fri 04:54:11 PM 51.3046 -0.4633 98° East 291 335 11,000  Level FlightAware ADS-B
Fri 04:54:13 PM 51.3046 -0.4590 90° East 298 343 11,000  Level FlightAware ADS-B
Fri 04:54:18 PM 51.3050 -0.4494 86° East 301 346 11,000  Level FlightAware ADS-B
Fri 04:54:19 PM 51.3050 -0.4486 94° East 302 348 11,000  Level FlightAware ADS-B (EGKK / LGW)
Fri 04:54:22 PM 51.3062 -0.4360 81° East 307 353 11,000  Level FlightAware ADS-B
Fri 04:54:27 PM 51.3070 -0.4298 77° East 306 352 11,000  Level FlightAware ADS-B (EGHI / SOU)
Fri 04:54:47 PM 51.3120 -0.3830 80° East 304 350 11,000  Level FlightAware ADS-B
Fri 04:54:59 PM 51.3149 -0.3565 80° East 304 350 11,000  Level FlightAware ADS-B
Fri 04:55:03 PM 51.3158 -0.3481 80° East 301 346 11,000  Level FlightAware ADS-B
Fri 04:55:10 PM 51.3163 -0.3345 87° East 292 336 11,000  Level FlightAware ADS-B
Fri 04:55:11 PM 51.3163 -0.3314 91° East 289 333 11,000  Level FlightAware ADS-B
Fri 04:55:13 PM 51.3159 -0.3265 97° East 283 326 11,000  Level FlightAware ADS-B
Fri 04:55:19 PM 51.3144 -0.3155 102° East 271 312 11,000  Level FlightAware ADS-B
Fri 04:55:25 PM 51.3115 -0.3049 114° Southeast 257 296 11,000  Level FlightAware ADS-B
Fri 04:55:29 PM 51.3089 -0.2978 121° Southeast 248 285 11,000  Level FlightAware ADS-B
Fri 04:55:31 PM 51.3089 -0.2978 180° South 245 282 11,000  Level FlightAware ADS-B
Fri 04:55:35 PM 51.3051 -0.2894 126° Southeast 237 273 11,000  Level FlightAware ADS-B
Fri 04:55:38 PM 51.3019 -0.2839 133° Southeast 228 262 11,000  Level FlightAware ADS-B
Fri 04:55:41 PM 51.3007 -0.2822 138° Southeast 226 260 11,000  Level FlightAware ADS-B
Fri 04:55:43 PM 51.2996 -0.2808 141° Southeast 224 258 11,000  Level FlightAware ADS-B
Fri 04:55:51 PM 51.2929 -0.2732 145° Southeast 211 243 11,000  Level FlightAware ADS-B
Fri 04:55:53 PM 51.2899 -0.2707 152° Southeast 203 234 11,000  Level FlightAware ADS-B
Fri 04:55:57 PM 51.2878 -0.2692 156° South 198 228 11,000  Level FlightAware ADS-B
Fri 04:56:00 PM 51.2852 -0.2676 159° South 193 222 11,000 750 Level FlightAware ADS-B
Fri 04:56:05 PM 51.2807 -0.2652 161° South 188 216 11,100  Climbing FlightAware ADS-B
Fri 04:56:11 PM 51.2759 -0.2637 169° South 189 217 11,000 -429 Descending FlightAware ADS-B
Fri 04:56:19 PM 51.2688 -0.2625 174° South 177 204 11,000  Level FlightAware ADS-B
Fri 04:56:20 PM 51.2682 -0.2625 178° South 174 200 11,000  Level FlightAware ADS-B
Fri 04:56:23 PM 51.2657 -0.2626 182° South 173 199 11,000  Level FlightAware ADS-B
Fri 04:56:27 PM 51.2627 -0.2633 188° South 162 186 11,000  Level FlightAware ADS-B (EGHI / SOU)
Fri 04:56:28 PM 51.2617 -0.2635 188° South 171 197 11,000  Level FlightAware ADS-B
Fri 04:56:37 PM 51.2570 -0.2652 193° South 173 199 11,000  Level FlightAware ADS-B
Fri 04:56:40 PM 51.2530 -0.2673 198° South 173 199 11,000  Level FlightAware ADS-B
Fri 04:56:42 PM 51.2512 -0.2683 200° South 173 199 11,000  Level FlightAware ADS-B
Fri 04:56:47 PM 51.2471 -0.2712 204° Southwest 173 199 11,000  Level FlightAware ADS-B
Fri 04:56:48 PM 51.2469 -0.2714 211° Southwest 166 191 11,000  Level FlightAware ADS-B (EGKK / LGW)
Fri 04:56:53 PM 51.2435 -0.2747 211° Southwest 172 198 11,000  Level FlightAware ADS-B
Fri 04:56:56 PM 51.2416 -0.2767 215° Southwest 166 191 11,000  Level FlightAware ADS-B (EGKK / LGW)
Fri 04:57:00 PM 51.2373 -0.2822 218° Southwest 172 198 11,000  Level FlightAware ADS-B (KSCH)
Fri 04:57:03 PM 51.2372 -0.2825 242° Southwest 172 198 11,000  Level FlightAware ADS-B
Fri 04:57:04 PM 51.2365 -0.2834 218° Southwest 172 198 11,000  Level FlightAware ADS-B
Fri 04:57:08 PM 51.2346 -0.2865 225° Southwest 173 199 11,000  Level FlightAware ADS-B
Fri 04:57:11 PM 51.2329 -0.2897 231° Southwest 173 199 11,000  Level FlightAware ADS-B
Fri 04:57:16 PM 51.2305 -0.2949 233° Southwest 174 200 11,000  Level FlightAware ADS-B
Fri 04:57:22 PM 51.2279 -0.3014 238° Southwest 175 201 11,000  Level FlightAware ADS-B
Fri 04:57:24 PM 51.2268 -0.3042 238° Southwest 175 201 11,000  Level FlightAware ADS-B
Fri 04:57:26 PM 51.2263 -0.3062 247° West 175 201 11,000  Level FlightAware ADS-B
Fri 04:57:32 PM 51.2246 -0.3130 248° West 175 201 11,000  Level FlightAware ADS-B
Fri 04:57:34 PM 51.2241 -0.3153 252° West 175 201 11,000  Level FlightAware ADS-B
Fri 04:57:43 PM 51.2227 -0.3265 258° West 178 205 11,000  Level FlightAware ADS-B
Fri 04:57:49 PM 51.2222 -0.3347 264° West 182 209 11,000 -462 Level FlightAware ADS-B
Fri 04:57:56 PM 51.2224 -0.3440 272° West 189 217 10,900 -1,000 Descending FlightAware ADS-B
Fri 04:58:01 PM 51.2231 -0.3517 278° West 196 226 10,800 -1,000 Descending FlightAware ADS-B
Fri 04:58:02 PM 51.2232 -0.3529 281° West 197 227 10,800 -2,000 Level FlightAware ADS-B
Fri 04:58:04 PM 51.2238 -0.3565 284° West 200 230 10,700 -1,200 Descending FlightAware ADS-B
Fri 04:58:07 PM 51.2244 -0.3600 288° West 203 234 10,700 -1,200 Level FlightAware ADS-B
Fri 04:58:09 PM 51.2248 -0.3622 284° West 205 236 10,600  Descending FlightAware ADS-B
Fri 04:58:13 PM 51.2231 -0.3524 106° East 202 232 10,700 -857 Climbing FlightAware ADS-B
Fri 04:58:16 PM 51.2275 -0.3722 290° West 213 245 10,500 -2,250 Descending FlightAware ADS-B
Fri 04:58:21 PM 51.2298 -0.3782 301° West 221 254 10,400 -857 Descending FlightAware ADS-B
Fri 04:58:23 PM 51.2315 -0.3825 303° West 224 258 10,400  Level FlightAware ADS-B
Fri 04:58:26 PM 51.2336 -0.3864 310° West 229 264 10,400 -750 Level FlightAware ADS-B
Fri 04:58:31 PM 51.2372 -0.3924 314° West 238 274 10,300 -1,200 Descending FlightAware ADS-B
Fri 04:58:36 PM 51.2413 -0.3979 320° Northwest 249 287 10,200 -1,000 Descending FlightAware ADS-B
Fri 04:58:37 PM 51.2421 -0.3991 317° Northwest 249 287 10,200 -1,000 Level FlightAware ADS-B
Fri 04:58:48 PM 51.2533 -0.4106 327° Northwest 250 288 10,000 -706 Descending FlightAware ADS-B
Fri 04:58:54 PM 51.2526 -0.4101 156° South 242 278 10,000  Level FlightAware ADS-B
Fri 04:59:00 PM 51.2660 -0.4273 321° Northwest 233 268 10,000  Level FlightAware ADS-B (KSCH)
Fri 04:59:06 PM 51.2689 -0.4311 321° Northwest 239 275 10,000  Level FlightAware ADS-B
Fri 04:59:33 PM 51.2927 -0.4581 325° Northwest 244 281 10,000  Level FlightAware ADS-B
Fri 04:59:43 PM 51.3020 -0.4680 327° Northwest 251 289 10,000  Level FlightAware ADS-B
Fri 04:59:45 PM 51.3041 -0.4698 331° Northwest 255 293 10,000  Level FlightAware ADS-B
Fri 04:59:49 PM 51.3084 -0.4735 332° Northwest 263 303 10,000  Level FlightAware ADS-B
Fri 04:59:53 PM 51.3135 -0.4763 340° North 279 321 10,000  Level FlightAware ADS-B
Fri 04:59:56 PM 51.3182 -0.4779 348° North 288 331 10,000  Level FlightAware ADS-B
Fri 04:59:59 PM 51.3219 -0.4786 354° North 292 336 10,000  Level FlightAware ADS-B
Fri 05:00:03 PM 51.3269 -0.4789 357° North 299 344 10,000  Level FlightAware ADS-B
Fri 05:00:07 PM 51.3333 -0.4782 North 306 352 10,000  Level FlightAware ADS-B (EGHI / SOU)
Fri 05:00:08 PM 51.3341 -0.4781 North 306 352 10,000  Level FlightAware ADS-B
Fri 05:00:15 PM 51.3437 -0.4748 12° North 318 366 10,000  Level FlightAware ADS-B
Fri 05:00:18 PM 51.3482 -0.4723 19° North 321 369 10,000  Level FlightAware ADS-B
Fri 05:00:19 PM 51.3424 -0.4755 199° South 319 367 10,000  Level FlightAware ADS-B
Fri 05:00:24 PM 51.3556 -0.4659 24° Northeast 326 375 10,000  Level FlightAware ADS-B
Fri 05:00:29 PM 51.3615 -0.4590 36° Northeast 328 377 10,000  Level FlightAware ADS-B
Fri 05:00:32 PM 51.3652 -0.4528 46° Northeast 327 376 10,000  Level FlightAware ADS-B (EGLF / FAB)
Fri 05:00:35 PM 51.3678 -0.4480 49° Northeast 326 375 10,000  Level FlightAware ADS-B
Fri 05:00:39 PM 51.3710 -0.4400 57° Northeast 322 371 10,000  Level FlightAware ADS-B
Fri 05:00:44 PM 51.3745 -0.4279 65° Northeast 318 366 10,000  Level FlightAware ADS-B
Fri 05:00:49 PM 51.3764 -0.4176 74° East 309 356 10,000  Level FlightAware ADS-B
Fri 05:00:55 PM 51.3771 -0.4043 85° East 299 344 10,000  Level FlightAware ADS-B
Fri 05:00:58 PM 51.3769 -0.3974 93° East 291 335 10,000  Level FlightAware ADS-B
Fri 05:01:03 PM 51.3757 -0.3867 100° East 279 321 10,000  Level FlightAware ADS-B
Fri 05:01:04 PM 51.3762 -0.3907 281° West 276 318 10,000  Level FlightAware ADS-B
Fri 05:01:07 PM 51.3740 -0.3790 107° East 271 312 10,000  Level FlightAware ADS-B (EGHI / SOU)
Fri 05:01:11 PM 51.3721 -0.3723 114° Southeast 261 300 10,000  Level FlightAware ADS-B
Fri 05:01:14 PM 51.3700 -0.3666 121° Southeast 253 291 10,000  Level FlightAware ADS-B
Fri 05:01:17 PM 51.3681 -0.3622 124° Southeast 248 285 10,000  Level FlightAware ADS-B
Fri 05:01:19 PM 51.3674 -0.3607 125° Southeast 243 280 10,000  Level FlightAware ADS-B
Fri 05:01:23 PM 51.3643 -0.3551 132° Southeast 235 270 10,000  Level FlightAware ADS-B
Fri 05:01:29 PM 51.3595 -0.3484 139° Southeast 222 255 10,000  Level FlightAware ADS-B
Fri 05:01:34 PM 51.3551 -0.3437 146° Southeast 211 243 10,000  Level FlightAware ADS-B
Fri 05:01:35 PM 51.3554 -0.3440 329° Northwest 209 241 10,000  Level FlightAware ADS-B
Fri 05:01:38 PM 51.3496 -0.3392 153° Southeast 200 230 10,000  Level FlightAware ADS-B (KSCH)
Fri 05:01:43 PM 51.3472 -0.3373 154° Southeast 208 239 10,000  Level FlightAware ADS-B
Fri 05:01:48 PM 51.3429 -0.3330 148° Southeast 216 249 10,000  Level FlightAware ADS-B
Fri 05:01:50 PM 51.3431 -0.3332 328° Northwest 221 254 10,000  Level FlightAware ADS-B (EGLC / LCY)
Fri 05:02:06 PM 51.3319 -0.3188 141° Southeast 224 258 10,000  Level FlightAware ADS-B
Fri 05:02:09 PM 51.3266 -0.3119 141° Southeast 222 255 10,000  Level FlightAware ADS-B
Fri 05:02:23 PM 51.3152 -0.2987 144° Southeast 221 254 10,000  Level FlightAware ADS-B
Fri 05:02:34 PM 51.3061 -0.2885 145° Southeast 216 249 10,000  Level FlightAware ADS-B (EGKK / LGW)
Fri 05:02:36 PM 51.3046 -0.2868 145° Southeast 216 249 10,000  Level FlightAware ADS-B
Fri 05:02:45 PM 51.2969 -0.2784 146° Southeast 212 244 10,000  Level FlightAware ADS-B
Fri 05:02:50 PM 51.2926 -0.2743 149° Southeast 208 239 10,000  Level FlightAware ADS-B
Fri 05:02:57 PM 51.2869 -0.2707 159° South 189 217 10,000  Level FlightAware ADS-B
Fri 05:03:00 PM 51.2839 -0.2697 168° South 181 208 10,000  Level FlightAware ADS-B
Fri 05:03:01 PM 51.2839 -0.2697 360° North 181 208 10,000  Level FlightAware ADS-B
Fri 05:03:03 PM 51.2804 -0.2693 176° South 176 203 10,000  Level FlightAware ADS-B (KSCH)
Fri 05:03:15 PM 51.2727 -0.2693 180° South 170 196 10,000  Level FlightAware ADS-B
Fri 05:03:19 PM 51.2691 -0.2697 184° South 166 191 10,000  Level FlightAware ADS-B
Fri 05:03:26 PM 51.2643 -0.2705 186° South 160 184 10,000  Level FlightAware ADS-B
Fri 05:03:35 PM 51.2579 -0.2729 193° South 156 180 10,000  Level FlightAware ADS-B
Fri 05:03:38 PM 51.2558 -0.2741 201° Southwest 155 178 10,000  Level FlightAware ADS-B
Fri 05:03:42 PM 51.2533 -0.2755 198° South 154 177 10,000  Level FlightAware ADS-B
Fri 05:03:51 PM 51.2473 -0.2805 208° Southwest 153 176 10,000  Level FlightAware ADS-B
Fri 05:03:57 PM 51.2437 -0.2844 214° Southwest 155 178 10,000  Level FlightAware ADS-B
Fri 05:04:02 PM 51.2411 -0.2879 220° Southwest 156 180 10,000  Level FlightAware ADS-B
Fri 05:04:06 PM 51.2411 -0.2879 180° South 156 180 10,000  Level FlightAware ADS-B
Fri 05:04:09 PM 51.2373 -0.2937 224° Southwest 156 180 10,000  Level FlightAware ADS-B
Fri 05:04:14 PM 51.2352 -0.2975 229° Southwest 157 181 10,000  Level FlightAware ADS-B (EGKK / LGW)
Fri 05:04:21 PM 51.2322 -0.3045 235° Southwest 159 183 10,000  Level FlightAware ADS-B
Fri 05:04:27 PM 51.2301 -0.3109 243° Southwest 162 186 10,000  Level FlightAware ADS-B (EGHI / SOU)
Fri 05:04:29 PM 51.2294 -0.3130 241° Southwest 163 188 10,000  Level FlightAware ADS-B
Fri 05:04:38 PM 51.2274 -0.3222 251° West 169 194 10,000  Level FlightAware ADS-B
Fri 05:04:39 PM 51.2270 -0.3248 257° West 169 194 10,000  Level FlightAware ADS-B
Fri 05:04:44 PM 51.2262 -0.3309 258° West 172 198 10,000  Level FlightAware ADS-B
Fri 05:04:46 PM 51.2260 -0.3335 263° West 173 199 10,000  Level FlightAware ADS-B (EGLF / FAB)
Fri 05:04:49 PM 51.2258 -0.3361 264° West 174 200 10,000  Level FlightAware ADS-B
Fri 05:04:50 PM 51.2258 -0.3388 269° West 175 201 10,000  Level FlightAware ADS-B
Fri 05:04:52 PM 51.2258 -0.3450 270° West 179 206 10,000  Level FlightAware ADS-B (KSCH)
Fri 05:04:59 PM 51.2262 -0.3502 277° West 182 209 10,000  Level FlightAware ADS-B
Fri 05:05:02 PM 51.2265 -0.3546 276° West 186 214 10,000  Level FlightAware ADS-B
Fri 05:05:06 PM 51.2272 -0.3598 282° West 189 217 10,000  Level FlightAware ADS-B
Fri 05:05:11 PM 51.2286 -0.3663 288° West 197 227 10,000  Level FlightAware ADS-B
Fri 05:05:13 PM 51.2291 -0.3684 293° West 197 227 10,000  Level FlightAware ADS-B
Fri 05:05:18 PM 51.2311 -0.3754 295° West 205 236 10,000  Level FlightAware ADS-B
Fri 05:05:24 PM 51.2340 -0.3830 301° West 215 247 10,000  Level FlightAware ADS-B
Fri 05:05:25 PM 51.2344 -0.3839 308° West 217 250 10,000  Level FlightAware ADS-B
Fri 05:05:30 PM 51.2380 -0.3909 309° West 227 261 10,000  Level FlightAware ADS-B
Fri 05:05:35 PM 51.2418 -0.3969 315° West 237 273 10,000  Level FlightAware ADS-B
Fri 05:05:38 PM 51.2445 -0.4005 320° Northwest 244 281 10,000  Level FlightAware ADS-B
Fri 05:05:41 PM 51.2499 -0.4063 326° Northwest 250 288 10,000  Level FlightAware ADS-B (KSCH)
Fri 05:05:44 PM 51.2502 -0.4066 330° Northwest 247 284 10,000  Level FlightAware ADS-B
Fri 05:05:48 PM 51.2543 -0.4113 325° Northwest 246 283 10,000  Level FlightAware ADS-B
Fri 05:05:52 PM 51.2600 -0.4182 323° Northwest 236 272 10,000  Level FlightAware ADS-B (KSCH)
Fri 05:06:03 PM 51.2677 -0.4281 321° Northwest 243 280 10,000  Level FlightAware ADS-B
Fri 05:06:08 PM 51.2713 -0.4326 322° Northwest 245 282 10,000 -375 Level FlightAware ADS-B
Fri 05:06:19 PM 51.2816 -0.4451 323° Northwest 248 285 9,900 -353 Descending FlightAware ADS-B
Fri 05:06:25 PM 51.2871 -0.4513 325° Northwest 241 277 9,900 -667 Level FlightAware ADS-B (EGHI / SOU)
Fri 05:06:28 PM 51.2849 -0.4487 144° Southeast 248 285 9,800 -1,333 Descending FlightAware ADS-B
Fri 05:06:34 PM 51.2959 -0.4617 323° Northwest 247 284 9,700 -923 Descending FlightAware ADS-B
Fri 05:06:41 PM 51.3013 -0.4678 325° Northwest 248 285 9,600 -1,091 Descending FlightAware ADS-B
Fri 05:06:45 PM 51.3058 -0.4729 324° Northwest 248 285 9,500 -857 Descending FlightAware ADS-B
Fri 05:06:48 PM 51.3084 -0.4758 325° Northwest 250 288 9,500  Level FlightAware ADS-B
Fri 05:06:50 PM 51.3103 -0.4775 331° Northwest 255 293 9,500 -1,200 Level FlightAware ADS-B
Fri 05:06:53 PM 51.3136 -0.4805 331° Northwest 263 303 9,400 -1,000 Descending FlightAware ADS-B
Fri 05:06:56 PM 51.3173 -0.4827 340° North 271 312 9,400 -857 Level FlightAware ADS-B
Fri 05:07:00 PM 51.3224 -0.4850 345° North 282 325 9,300 -1,000 Descending FlightAware ADS-B
Fri 05:07:02 PM 51.3245 -0.4856 349° North 286 329 9,300  Level FlightAware ADS-B
Fri 05:07:04 PM 51.3269 -0.4860 355° North 290 334 9,300 -1,200 Level FlightAware ADS-B
Fri 05:07:07 PM 51.3316 -0.4863 358° North 299 344 9,200 -857 Descending FlightAware ADS-B
Fri 05:07:11 PM 51.3369 -0.4858 North 307 353 9,200 -857 Level FlightAware ADS-B
Fri 05:07:14 PM 51.3420 -0.4844 10° North 314 361 9,100 -857 Descending FlightAware ADS-B
Fri 05:07:18 PM 51.3477 -0.4819 15° North 321 369 9,100  Level FlightAware ADS-B
Fri 05:07:19 PM 51.3469 -0.4824 200° South 321 369 9,100 -1,500 Level FlightAware ADS-B (EGKK / LGW)
Fri 05:07:22 PM 51.3530 -0.4786 21° North 327 376 9,000 -857 Descending FlightAware ADS-B
Fri 05:07:26 PM 51.3578 -0.4746 27° Northeast 332 382 9,000  Level FlightAware ADS-B
Fri 05:07:30 PM 51.3633 -0.4691 32° Northeast 335 386 9,000  Level FlightAware ADS-B
Fri 05:07:31 PM 51.3638 -0.4686 32° Northeast 321 369 9,000  Level FlightAware ADS-B
Fri 05:07:34 PM 51.3685 -0.4626 39° Northeast 335 386 9,000  Level FlightAware ADS-B
Fri 05:07:35 PM 51.3693 -0.4613 45° Northeast 335 386 9,000  Level FlightAware ADS-B
Fri 05:07:40 PM 51.3746 -0.4523 46° Northeast 334 384 9,000  Level FlightAware ADS-B
Fri 05:07:43 PM 51.3774 -0.4465 52° Northeast 332 382 9,000  Level FlightAware ADS-B
Fri 05:07:50 PM 51.3825 -0.4326 59° Northeast 325 374 9,000  Level FlightAware ADS-B
Fri 05:07:54 PM 51.3851 -0.4221 69° East 319 367 9,000  Level FlightAware ADS-B
Fri 05:07:57 PM 51.3863 -0.4157 73° East 312 359 9,000  Level FlightAware ADS-B
Fri 05:08:00 PM 51.3870 -0.4099 79° East 309 356 9,000  Level FlightAware ADS-B
Fri 05:08:03 PM 51.3877 -0.4024 82° East 302 348 9,000  Level FlightAware ADS-B
Fri 05:08:04 PM 51.3877 -0.4024 360° North 302 348 9,000  Level FlightAware ADS-B
Fri 05:08:06 PM 51.3879 -0.3954 88° East 297 342 9,000  Level FlightAware ADS-B
Fri 05:08:12 PM 51.3879 -0.3845 90° East 291 335 9,000  Level FlightAware ADS-B (EGKK / LGW)
Fri 05:08:17 PM 51.3877 -0.3797 93° East 289 333 9,000  Level FlightAware ADS-B
Fri 05:08:18 PM 51.3873 -0.3704 94° East 289 333 9,000  Level FlightAware ADS-B
Fri 05:08:20 PM 51.3873 -0.3696 86° East 288 331 9,000  Level FlightAware ADS-B (EGKK / LGW)
Fri 05:08:33 PM 51.3870 -0.3384 91° East 280 322 9,000  Level FlightAware ADS-B
Fri 05:08:35 PM 51.3870 -0.3339 90° East 278 320 9,000  Level FlightAware ADS-B
Fri 05:08:42 PM 51.3870 -0.3199 90° East 271 312 9,000  Level FlightAware ADS-B
Fri 05:08:49 PM 51.3872 -0.3061 89° East 267 307 9,000  Level FlightAware ADS-B
Fri 05:09:01 PM 51.3875 -0.2837 89° East 257 296 9,000 -400 Level FlightAware ADS-B
Fri 05:09:04 PM 51.3877 -0.2769 88° East 256 295 8,900 -1,000 Descending FlightAware ADS-B
Fri 05:09:07 PM 51.3879 -0.2676 88° East 254 292 8,900 -750 Level FlightAware ADS-B (KSCH)
Fri 05:09:12 PM 51.3879 -0.2638 90° East 253 291 8,800 -923 Descending FlightAware ADS-B (EGKK / LGW)
Fri 05:09:20 PM 51.3882 -0.2486 88° East 252 290 8,700 -1,200 Descending FlightAware ADS-B
Fri 05:09:27 PM 51.3885 -0.2290 88° East 259 298 8,500 -1,200 Descending FlightAware ADS-B (KSCH)
Fri 05:09:35 PM 51.3885 -0.2194 90° East 260 299 8,400 -923 Descending FlightAware ADS-B
Fri 05:09:40 PM 51.3884 -0.2395 269° West 255 293 8,300 -1,200 Descending FlightAware ADS-B
Fri 05:09:50 PM 51.3889 -0.1899 89° East 263 303 8,100 -1,200 Descending FlightAware ADS-B
Fri 05:09:55 PM 51.3891 -0.1830 88° East 263 303 8,000 -1,200 Descending FlightAware ADS-B
Fri 05:10:05 PM 51.3892 -0.1608 89° East 263 303 7,800 -1,250 Descending FlightAware ADS-B
Fri 05:10:19 PM 51.3892 -0.1334 90° East 261 300 7,500 -1,125 Descending FlightAware ADS-B
Fri 05:10:21 PM 51.3892 -0.1321 86° East 261 300 7,500 -2,400 Level FlightAware ADS-B (EGLF / FAB)
Fri 05:10:24 PM 51.3894 -0.1248 88° East 261 300 7,300 -1,286 Descending FlightAware ADS-B (EGLC / LCY)
Fri 05:10:35 PM 51.3894 -0.1042 90° East 257 296 7,200 -632 Descending FlightAware ADS-B
Fri 05:10:43 PM 51.3896 -0.0900 89° East 253 291 7,100 -1,000 Descending FlightAware ADS-B
Fri 05:10:47 PM 51.3898 -0.0805 88° East 253 291 7,000 -1,714 Descending FlightAware ADS-B
Fri 05:10:50 PM 51.3898 -0.0768 91° East 256 295 6,900 -1,200 Descending FlightAware ADS-B
Fri 05:10:52 PM 51.3901 -0.0716 84° East 258 297 6,900 -1,500 Level FlightAware ADS-B
Fri 05:10:54 PM 51.3906 -0.0666 81° East 262 302 6,800 -2,000 Descending FlightAware ADS-B (EGLF / FAB)
Fri 05:10:55 PM 51.3910 -0.0650 68° East 263 303 6,800  Level FlightAware ADS-B
Fri 05:10:58 PM 51.3920 -0.0594 74° East 269 310 6,800  Level FlightAware ADS-B
Fri 05:10:59 PM 51.3923 -0.0578 72° East 270 311 6,800 -1,200 Level FlightAware ADS-B
Fri 05:11:03 PM 51.3944 -0.0510 64° Northeast 275 316 6,700 -1,200 Descending FlightAware ADS-B
Fri 05:11:04 PM 51.3940 -0.0517 229° Southwest 276 318 6,700 -1,000 Level FlightAware ADS-B (EGKK / LGW)
Fri 05:11:09 PM 51.3977 -0.0425 58° Northeast 279 321 6,600 -1,333 Descending FlightAware ADS-B
Fri 05:11:13 PM 51.4018 -0.0346 50° Northeast 280 322 6,500 -1,333 Descending FlightAware ADS-B
Fri 05:11:18 PM 51.4071 -0.0275 40° Northeast 281 323 6,400 -857 Descending FlightAware ADS-B
Fri 05:11:20 PM 51.4093 -0.0251 34° Northeast 281 323 6,400  Level FlightAware ADS-B
Fri 05:11:24 PM 51.4131 -0.0218 28° Northeast 279 321 6,400 -857 Level FlightAware ADS-B
Fri 05:11:27 PM 51.4167 -0.0192 24° Northeast 276 318 6,300 -1,714 Descending FlightAware ADS-B (EGKK / LGW)
Fri 05:11:31 PM 51.4215 -0.0169 17° North 272 313 6,200 -1,500 Descending FlightAware ADS-B
Fri 05:11:35 PM 51.4275 -0.0151 10° North 263 303 6,100 -1,000 Descending FlightAware ADS-B
Fri 05:11:37 PM 51.4297 -0.0148 North 265 305 6,100 -857 Level FlightAware ADS-B
Fri 05:11:42 PM 51.4347 -0.0151 358° North 246 283 6,000 -857 Descending FlightAware ADS-B
Fri 05:11:44 PM 51.4368 -0.0156 350° North 241 277 6,000 -1,000 Level FlightAware ADS-B
Fri 05:11:48 PM 51.4416 -0.0177 345° North 228 262 5,900 -1,000 Descending FlightAware ADS-B
Fri 05:11:50 PM 51.4411 -0.0175 170° South 226 260 5,900 -1,500 Level FlightAware ADS-B
Fri 05:11:52 PM 51.4454 -0.0206 336° Northwest 213 245 5,800 -2,000 Descending FlightAware ADS-B
Fri 05:11:56 PM 51.4483 -0.0235 328° Northwest 200 230 5,700 -1,200 Descending FlightAware ADS-B
Fri 05:11:57 PM 51.4493 -0.0247 324° Northwest 197 227 5,700 -1,500 Level FlightAware ADS-B (EGLF / FAB)
Fri 05:12:00 PM 51.4510 -0.0271 318° Northwest 190 219 5,600 -857 Descending FlightAware ADS-B
Fri 05:12:04 PM 51.4536 -0.0311 316° Northwest 183 211 5,600 -545 Level FlightAware ADS-B
Fri 05:12:11 PM 51.4564 -0.0356 315° West 180 207 5,500 -1,000 Descending FlightAware ADS-B
Fri 05:12:16 PM 51.4605 -0.0426 313° West 182 209 5,400 -1,091 Descending FlightAware ADS-B
Fri 05:12:22 PM 51.4634 -0.0482 310° West 175 201 5,300 -1,200 Descending FlightAware ADS-B
Fri 05:12:26 PM 51.4655 -0.0532 304° West 164 189 5,200 -857 Descending FlightAware ADS-B
Fri 05:12:29 PM 51.4663 -0.0560 295° West 158 182 5,200 -857 Level FlightAware ADS-B (EGLF / FAB)
Fri 05:12:33 PM 51.4673 -0.0601 291° West 145 167 5,100 -1,000 Descending FlightAware ADS-B
Fri 05:12:35 PM 51.4673 -0.0601 360° North 142 163 5,100 -1,500 Level FlightAware ADS-B
Fri 05:12:37 PM 51.4677 -0.0639 279° West 137 158 5,000 -1,200 Descending FlightAware ADS-B
Fri 05:12:45 PM 51.4684 -0.0721 278° West 133 153 4,900 -500 Descending FlightAware ADS-B
Fri 05:12:49 PM 51.4687 -0.0762 277° West 135 155 4,900 -1,091 Level FlightAware ADS-B
Fri 05:12:56 PM 51.4693 -0.0831 278° West 138 159 4,700 -1,333 Descending FlightAware ADS-B
Fri 05:12:58 PM 51.4694 -0.0845 276° West 137 158 4,700  Level FlightAware ADS-B
Fri 05:13:03 PM 51.4698 -0.0898 277° West 138 159 4,700 -600 Level FlightAware ADS-B
Fri 05:13:08 PM 51.4699 -0.0942 273° West 136 157 4,600 -353 Descending FlightAware ADS-B
Fri 05:13:20 PM 51.4702 -0.1071 272° West 131 151 4,600 -333 Level FlightAware ADS-B
Fri 05:13:26 PM 51.4701 -0.1126 268° West 126 145 4,500 -750 Descending FlightAware ADS-B
Fri 05:13:28 PM 51.4701 -0.1136 268° West 126 145 4,500 -333 Level FlightAware ADS-B (EGLC / LCY)
Fri 05:13:44 PM 51.4701 -0.1291 270° West 120 138 4,400 -353 Descending FlightAware ADS-B
Fri 05:13:45 PM 51.4701 -0.1296 266° West 121 139 4,400 -1,000 Level FlightAware ADS-B
Fri 05:13:50 PM 51.4701 -0.1337 270° West 117 135 4,300 -750 Descending FlightAware ADS-B
Fri 05:13:53 PM 51.4702 -0.1368 274° West 117 135 4,300  Level FlightAware ADS-B
Fri 05:14:05 PM 51.4702 -0.1463 270° West 107 123 4,300  Level FlightAware ADS-B
Fri 05:14:06 PM 51.4703 -0.1471 275° West 107 123 4,300 -375 Level FlightAware ADS-B
Fri 05:14:21 PM 51.4704 -0.1588 271° West 104 120 4,200 -286 Descending FlightAware ADS-B
Fri 05:14:27 PM 51.4706 -0.1641 273° West 105 121 4,200  Level FlightAware ADS-B
Fri 05:14:36 PM 51.4706 -0.1675 271° West 106 122 4,200 -400 Level FlightAware ADS-B
Fri 05:14:42 PM 51.4708 -0.1751 272° West 101 116 4,100 -750 Descending FlightAware ADS-B
Fri 05:14:44 PM 51.4708 -0.1764 268° West 101 116 4,100  Level FlightAware ADS-B
Fri 05:14:52 PM 51.4709 -0.1828 272° West 96 110 4,100 -545 Level FlightAware ADS-B
Fri 05:14:55 PM 51.4709 -0.1849 272° West 93 107 4,000 -667 Descending FlightAware ADS-B
Fri 05:15:01 PM 51.4709 -0.1887 269° West 98 113 4,000 429 Level FlightAware ADS-B
Fri 05:15:09 PM 51.4711 -0.1950 273° West 110 127 4,100 462 Climbing FlightAware ADS-B
Fri 05:15:14 PM 51.4711 -0.1979 271° West 113 130 4,100  Level FlightAware ADS-B
Fri 05:15:26 PM 51.4713 -0.2101 271° West 116 133 4,100  Level FlightAware ADS-B
Fri 05:15:29 PM 51.4713 -0.2079 91° East 116 133 4,100  Level FlightAware ADS-B (EGLF / FAB)
Fri 05:15:34 PM 51.4715 -0.2163 272° West 115 132 4,100  Level FlightAware ADS-B
Fri 05:15:38 PM 51.4715 -0.2199 269° West 115 132 4,100 -800 Level FlightAware ADS-B
Fri 05:15:49 PM 51.4716 -0.2297 271° West 114 131 3,900 -947 Descending FlightAware ADS-B
Fri 05:15:57 PM 51.4716 -0.2357 270° West 117 135 3,800 -667 Descending FlightAware ADS-B
Fri 05:15:58 PM 51.4716 -0.2366 273° West 116 133 3,800  Level FlightAware ADS-B
Fri 05:16:10 PM 51.4716 -0.2407 270° West 117 135 3,800 -400 Level FlightAware ADS-B
Fri 05:16:13 PM 51.4720 -0.2494 274° West 115 132 3,700 -923 Descending FlightAware ADS-B
Fri 05:16:23 PM 51.4720 -0.2585 270° West 111 128 3,600 -800 Descending FlightAware ADS-B
Fri 05:16:28 PM 51.4720 -0.2626 269° West 107 123 3,500 -750 Descending FlightAware ADS-B
Fri 05:16:31 PM 51.4720 -0.2649 271° West 106 122 3,500 -667 Level FlightAware ADS-B
Fri 05:16:37 PM 51.4720 -0.2695 270° West 105 121 3,400 -545 Descending FlightAware ADS-B
Fri 05:16:42 PM 51.4720 -0.2699 263° West 110 127 3,400 -400 Level FlightAware ADS-B
Fri 05:16:52 PM 51.4723 -0.2826 272° West 124 143 3,300 -706 Descending FlightAware ADS-B
Fri 05:16:59 PM 51.4722 -0.2889 268° West 130 150 3,200 -706 Descending FlightAware ADS-B
Fri 05:17:09 PM 51.4721 -0.2973 270° West 122 140 3,100 -857 Descending FlightAware ADS-B
Fri 05:17:13 PM 51.4723 -0.3017 273° West 123 142 3,000 -1,000 Descending FlightAware ADS-B
Fri 05:17:21 PM 51.4727 -0.3085 275° West 118 136 2,900 -500 Descending FlightAware ADS-B
Fri 05:17:25 PM 51.4729 -0.3116 275° West 112 129 2,900  Level FlightAware ADS-B
Fri 05:17:28 PM 51.4728 -0.3143 268° West 111 128 2,900 -750 Level FlightAware ADS-B
Fri 05:17:41 PM 51.4728 -0.3245 270° West 98 113 2,700 -632 Descending FlightAware ADS-B (EGLF / FAB)
Fri 05:17:47 PM 51.4729 -0.3281 271° West 106 122 2,700  Level FlightAware ADS-B
Fri 05:17:51 PM 51.4729 -0.3313 270° West 113 130 2,700 -462 Level FlightAware ADS-B
Fri 05:18:00 PM 51.4730 -0.3390 272° West 125 144 2,600 -900 Descending FlightAware ADS-B
Fri 05:18:11 PM 51.4732 -0.3512 271° West 130 150 2,400 -1,125 Descending FlightAware ADS-B
Fri 05:18:16 PM 51.4732 -0.3476 90° East 127 146 2,300 -600 Descending FlightAware ADS-B
Fri 05:18:31 PM 51.4730 -0.3699 269° West 126 145 2,200 -563 Descending FlightAware ADS-B
Fri 05:18:48 PM 51.4735 -0.3835 274° West 116 133 2,000 -667 Descending FlightAware ADS-B
Fri 05:19:07 PM 51.4739 -0.4020 272° West 124 143 1,800 -600 Descending FlightAware ADS-B
Fri 05:19:18 PM 51.4739 -0.4116 270° West 121 139 1,700 -667 Descending FlightAware ADS-B
Fri 05:19:25 PM 51.4739 -0.4175 270° West 122 140 1,600 -667 Descending FlightAware ADS-B (EGLF / FAB)
Fri 05:19:45 PM 51.4737 -0.4262 268° West 131 151 1,400 -643 Descending FlightAware ADS-B (EGLF / FAB)
Fri 05:19:53 PM 51.4742 -0.4443 273° West 135 155 1,300 706 Descending FlightAware ADS-B
Fri 05:20:19 PM 51.4747 -0.4743 272° West 168 193 1,800 1,953 Climbing FlightAware ADS-B
Fri 05:20:36 PM 51.4752 -0.4918 273° West 166 191 2,700 3,111 Climbing FlightAware ADS-B
Fri 05:20:46 PM 51.4756 -0.5059 272° West 125 144 3,200 2,769 Climbing FlightAware ADS-B
Fri 05:20:49 PM 51.4752 -0.5095 261° West 127 146 3,300 1,714 Climbing FlightAware ADS-B
Fri 05:20:53 PM 51.4749 -0.5122 260° West 128 147 3,400 857 Climbing FlightAware ADS-B
Fri 05:20:56 PM 51.4752 -0.4918 89° East 129 148 3,400  Level FlightAware ADS-B
Fri 05:20:57 PM 51.4741 -0.5165 266° West 130 150 3,400 1,200 Level FlightAware ADS-B
Fri 05:21:06 PM 51.4720 -0.5242 246° West 140 161 3,600 1,500 Climbing FlightAware ADS-B
Fri 05:21:09 PM 51.4711 -0.5273 246° West 137 158 3,700 1,800 Climbing FlightAware ADS-B (EGHI / SOU)
Fri 05:21:16 PM 51.4694 -0.5344 248° West 139 160 3,900 1,636 Climbing FlightAware ADS-B
Fri 05:21:20 PM 51.4684 -0.5374 242° Southwest 133 153 4,000 750 Climbing FlightAware ADS-B
Fri 05:21:24 PM 51.4672 -0.5404 237° Southwest 125 144 4,000  Level FlightAware ADS-B
Fri 05:21:27 PM 51.4658 -0.5421 218° Southwest 123 142 4,000  Level FlightAware ADS-B
Fri 05:21:30 PM 51.4643 -0.5435 209° Southwest 124 143 4,000  Level FlightAware ADS-B
Fri 05:21:33 PM 51.4622 -0.5441 191° South 130 150 4,000  Level FlightAware ADS-B
Fri 05:21:36 PM 51.4601 -0.5443 184° South 135 155 4,000  Level FlightAware ADS-B
Fri 05:21:39 PM 51.4590 -0.5440 169° South 141 162 4,000  Level FlightAware ADS-B
Fri 05:21:40 PM 51.4577 -0.5437 171° South 143 165 4,000 1,500 Level FlightAware ADS-B
Fri 05:21:43 PM 51.4558 -0.5424 158° South 150 173 4,100 857 Climbing FlightAware ADS-B
Fri 05:21:47 PM 51.4538 -0.5405 150° Southeast 158 182 4,100  Level FlightAware ADS-B
Fri 05:21:50 PM 51.4519 -0.5382 142° Southeast 163 188 4,100  Level FlightAware ADS-B
Fri 05:21:54 PM 51.4497 -0.5351 139° Southeast 170 196 4,100 632 Level FlightAware ADS-B
Fri 05:22:09 PM 51.4411 -0.5212 135° Southeast 173 199 4,300 818 Climbing FlightAware ADS-B
Fri 05:22:16 PM 51.4370 -0.5146 135° Southeast 171 197 4,400 1,200 Climbing FlightAware ADS-B
Fri 05:22:24 PM 51.4325 -0.5077 136° Southeast 174 200 4,600 2,400 Climbing FlightAware ADS-B
Fri 05:22:26 PM 51.4297 -0.5035 136° Southeast 171 197 4,800 2,250 Climbing FlightAware ADS-B (KSCH)
Fri 05:22:40 PM 51.4234 -0.4932 135° Southeast 175 201 5,200 1,714 Climbing FlightAware ADS-B
Fri 05:22:54 PM 51.4157 -0.4807 135° Southeast 177 204 5,600 1,846 Climbing FlightAware ADS-B
Fri 05:23:06 PM 51.4083 -0.4686 135° Southeast 183 211 6,000 1,600 Climbing FlightAware ADS-B
Fri 05:23:09 PM 51.4068 -0.4662 135° Southeast 183 211 6,000  Level FlightAware ADS-B
Fri 05:23:12 PM 51.4048 -0.4631 135° Southeast 181 208 6,000  Level FlightAware ADS-B (EGLF / FAB)
Fri 05:23:21 PM 51.3995 -0.4542 134° Southeast 175 201 6,000  Level FlightAware ADS-B
Fri 05:23:30 PM 51.3947 -0.4462 134° Southeast 179 206 6,000 462 Level FlightAware ADS-B
Fri 05:23:34 PM 51.3928 -0.4424 129° Southeast 190 219 6,100 857 Climbing FlightAware ADS-B
Fri 05:23:37 PM 51.3911 -0.4384 124° Southeast 203 234 6,100  Level FlightAware ADS-B
Fri 05:23:41 PM 51.3896 -0.4331 114° Southeast 219 252 6,100  Level FlightAware ADS-B
Fri 05:23:43 PM 51.3885 -0.4292 113° Southeast 230 265 6,100  Level FlightAware ADS-B
Fri 05:23:44 PM 51.3882 -0.4274 108° East 233 268 6,100  Level FlightAware ADS-B
Fri 05:23:46 PM 51.3877 -0.4242 104° East 242 278 6,100  Level FlightAware ADS-B
Fri 05:23:48 PM 51.3873 -0.4201 98° East 250 288 6,100  Level FlightAware ADS-B
Fri 05:23:50 PM 51.3870 -0.4164 97° East 258 297 6,100  Level FlightAware ADS-B (EGHI / SOU)
Fri 05:23:55 PM 51.3866 -0.4077 94° East 272 313 6,100  Level FlightAware ADS-B
Fri 05:24:03 PM 51.3865 -0.4005 91° East 282 325 6,100  Level FlightAware ADS-B
Fri 05:24:10 PM 51.3865 -0.3754 90° East 286 329 6,100  Level FlightAware ADS-B
Fri 05:24:12 PM 51.3865 -0.3732 90° East 287 330 6,100  Level FlightAware ADS-B (EGKK / LGW)
Fri 05:24:22 PM 51.3862 -0.3504 91° East 284 327 6,100  Level FlightAware ADS-B
Fri 05:24:23 PM 51.3863 -0.3584 271° West 286 329 6,100 -429 Level FlightAware ADS-B (EGLF / FAB)
Fri 05:24:36 PM 51.3853 -0.3220 93° East 280 322 6,000 -316 Descending FlightAware ADS-B
Fri 05:24:42 PM 51.3850 -0.3093 92° East 277 319 6,000 316 Level FlightAware ADS-B
Fri 05:24:55 PM 51.3842 -0.2868 93° East 278 320 6,100 400 Climbing FlightAware ADS-B
Fri 05:24:57 PM 51.3841 -0.2786 92° East 279 321 6,100  Level FlightAware ADS-B
Fri 05:25:03 PM 51.3838 -0.2657 92° East 182 209 6,100  Level FlightAware ADS-B
Fri 05:25:10 PM 51.3834 -0.2523 92° East 276 318 6,100  Level FlightAware ADS-B
Fri 05:25:12 PM 51.3834 -0.2473 90° East 276 318 6,100  Level FlightAware ADS-B
Fri 05:25:13 PM 51.3834 -0.2473 North 276 318 6,100  Level FlightAware ADS-B (EGKK / LGW)
Fri 05:25:25 PM 51.3827 -0.2232 93° East 281 323 6,100 429 Level FlightAware ADS-B (EGKK / LGW)
Fri 05:25:27 PM 51.3826 -0.2161 92° East 283 326 6,200 3,429 Climbing FlightAware ADS-B
Fri 05:25:32 PM 51.3824 -0.2065 92° East 278 320 6,500 1,875 Climbing FlightAware ADS-B
Fri 05:25:43 PM 51.3815 -0.1818 93° East 302 348 6,700 1,500 Climbing FlightAware ADS-B
Fri 05:25:48 PM 51.3811 -0.1704 93° East 311 358 6,900 1,125 Climbing FlightAware ADS-B
Fri 05:25:59 PM 51.3800 -0.1461 94° East 321 369 7,000 353 Climbing FlightAware ADS-B
Fri 05:26:05 PM 51.3793 -0.1310 94° East 321 369 7,000  Level FlightAware ADS-B
Fri 05:26:14 PM 51.3784 -0.1097 94° East 319 367 7,000  Level FlightAware ADS-B
Fri 05:26:23 PM 51.3776 -0.0880 94° East 319 367 7,000 400 Level FlightAware ADS-B
Fri 05:26:29 PM 51.3771 -0.0740 93° East 318 366 7,100 333 Climbing FlightAware ADS-B
Fri 05:26:41 PM 51.3762 -0.0534 94° East 317 365 7,100  Level FlightAware ADS-B
Fri 05:26:46 PM 51.3753 -0.0357 95° East 317 365 7,100  Level FlightAware ADS-B
Fri 05:26:48 PM 51.3753 -0.0338 89° East 316 364 7,100  Level FlightAware ADS-B (EGKK / LGW)
Fri 05:26:58 PM 51.3743 -0.0136 95° East 319 367 7,100  Level FlightAware ADS-B
Fri 05:27:02 PM 51.3736 0.0019 94° East 320 368 7,100  Level FlightAware ADS-B
Fri 05:27:06 PM 51.3733 0.0086 95° East 320 368 7,100  Level FlightAware ADS-B (EGKK / LGW)
Fri 05:27:12 PM 51.3726 0.0264 93° East 322 371 7,100  Level FlightAware ADS-B
Fri 05:27:20 PM 51.3729 0.0458 89° East 335 386 7,100  Level FlightAware ADS-B
Fri 05:27:23 PM 51.3738 0.0539 80° East 342 394 7,100  Level FlightAware ADS-B
Fri 05:27:25 PM 51.3743 0.0577 78° East 343 395 7,100  Level FlightAware ADS-B
Fri 05:27:30 PM 51.3771 0.0704 71° East 350 403 7,100  Level FlightAware ADS-B
Fri 05:27:31 PM 51.3774 0.0719 71° East 350 403 7,100  Level FlightAware ADS-B
Fri 05:27:38 PM 51.3825 0.0876 62° Northeast 357 411 7,100  Level FlightAware ADS-B
Fri 05:27:41 PM 51.3856 0.0946 55° Northeast 360 414 7,100  Level FlightAware ADS-B
Fri 05:27:45 PM 51.3901 0.1030 49° Northeast 359 413 7,100  Level FlightAware ADS-B
Fri 05:27:47 PM 51.3930 0.1076 44° Northeast 357 411 7,100  Level FlightAware ADS-B (EGLF / FAB)
Fri 05:27:52 PM 51.3992 0.1160 40° Northeast 354 407 7,100  Level FlightAware ADS-B
Fri 05:27:53 PM 51.4000 0.1171 39° Northeast 353 406 7,100  Level FlightAware ADS-B
Fri 05:27:56 PM 51.4045 0.1221 35° Northeast 350 403 7,100  Level FlightAware ADS-B
Fri 05:28:01 PM 51.4102 0.1270 29° Northeast 344 396 7,100  Level FlightAware ADS-B
Fri 05:28:02 PM 51.4119 0.1283 24° Northeast 350 403 7,100  Level FlightAware ADS-B
Fri 05:28:06 PM 51.4181 0.1322 22° Northeast 340 391 7,100  Level FlightAware ADS-B
Fri 05:28:11 PM 51.4222 0.1342 17° North 338 389 7,100  Level FlightAware ADS-B
Fri 05:28:16 PM 51.4337 0.1389 14° North 337 388 7,100  Level FlightAware ADS-B
Fri 05:28:18 PM 51.4373 0.1402 13° North 337 388 7,100  Level FlightAware ADS-B
Fri 05:28:27 PM 51.4505 0.1454 14° North 342 394 7,100  Level FlightAware ADS-B
Fri 05:28:32 PM 51.4572 0.1483 15° North 343 395 7,100  Level FlightAware ADS-B
Fri 05:28:44 PM 51.4759 0.1560 14° North 342 394 7,100 -400 Level FlightAware ADS-B
Fri 05:28:47 PM 51.4725 0.1546 194° South 341 392 7,000  Descending FlightAware ADS-B
Fri 05:28:57 PM 51.4955 0.1641 14° North 344 396 7,100  Climbing FlightAware ADS-B
Fri 05:29:04 PM 51.5067 0.1686 14° North 346 398 7,000  Descending FlightAware ADS-B
Fri 05:29:08 PM 51.5128 0.1710 13° North 346 398 7,100 667 Climbing FlightAware ADS-B
Fri 05:29:13 PM 51.5204 0.1739 14° North 346 398 7,100 1,429 Level FlightAware ADS-B
Fri 05:29:29 PM 51.5462 0.1849 15° North 360 414 7,600 2,483 Climbing FlightAware ADS-B
Fri 05:29:42 PM 51.5678 0.1931 13° North 352 405 8,300 3,000 Climbing FlightAware ADS-B
Fri 05:29:43 PM 51.5640 0.1921 189° South 348 400 8,300 3,000 Level FlightAware ADS-B (EGLC / LCY)
Fri 05:29:46 PM 51.5738 0.1940 North 343 395 8,500 2,250 Climbing FlightAware ADS-B
Fri 05:29:51 PM 51.5813 0.1937 359° North 335 386 8,600 1,500 Climbing FlightAware ADS-B
Fri 05:29:54 PM 51.5813 0.1937 360° North 327 376 8,700 1,200 Climbing FlightAware ADS-B
Fri 05:29:56 PM 51.5885 0.1919 351° North 325 374 8,700 1,200 Level FlightAware ADS-B
Fri 05:29:59 PM 51.5932 0.1899 345° North 318 366 8,800 1,500 Climbing FlightAware ADS-B
Fri 05:30:00 PM 51.5940 0.1895 344° North 314 361 8,800 1,000 Level FlightAware ADS-B
Fri 05:30:05 PM 51.5995 0.1859 338° Northwest 310 357 8,900 750 Climbing FlightAware ADS-B
Fri 05:30:08 PM 51.6047 0.1817 333° Northwest 297 342 8,900  Level FlightAware ADS-B
Fri 05:30:13 PM 51.6105 0.1755 327° Northwest 288 331 8,900 667 Level FlightAware ADS-B
Fri 05:30:17 PM 51.6179 0.1669 324° Northwest 280 322 9,000 545 Climbing FlightAware ADS-B (KSCH)
Fri 05:30:24 PM 51.6200 0.1645 324° Northwest 288 331 9,000  Level FlightAware ADS-B
Fri 05:30:27 PM 51.6262 0.1576 326° Northwest 289 333 9,000  Level FlightAware ADS-B
Fri 05:30:36 PM 51.6340 0.1488 325° Northwest 290 334 9,000  Level FlightAware ADS-B
Fri 05:30:43 PM 51.6438 0.1384 326° Northwest 288 331 9,000  Level FlightAware ADS-B
Fri 05:30:52 PM 51.6527 0.1289 327° Northwest 288 331 9,000  Level FlightAware ADS-B
Fri 05:30:53 PM 51.6545 0.1270 326° Northwest 287 330 9,000  Level FlightAware ADS-B
Fri 05:30:55 PM 51.6589 0.1219 324° Northwest 282 325 9,000  Level FlightAware ADS-B (KSCH)
Fri 05:31:03 PM 51.6653 0.1138 322° Northwest 279 321 9,000  Level FlightAware ADS-B (EGLC / LCY)
Fri 05:31:08 PM 51.6701 0.1077 322° Northwest 278 320 9,000  Level FlightAware ADS-B
Fri 05:31:20 PM 51.6819 0.0923 321° Northwest 281 323 9,000  Level FlightAware ADS-B
Fri 05:31:24 PM 51.6859 0.0874 322° Northwest 282 325 9,000  Level FlightAware ADS-B
Fri 05:31:29 PM 51.6905 0.0814 321° Northwest 283 326 9,000  Level FlightAware ADS-B
Fri 05:31:39 PM 51.7013 0.0680 323° Northwest 284 327 9,000  Level FlightAware ADS-B
Fri 05:31:46 PM 51.7058 0.0623 322° Northwest 281 323 9,000  Level FlightAware ADS-B
Fri 05:31:54 PM 51.7169 0.0484 322° Northwest 279 321 9,000  Level FlightAware ADS-B
Fri 05:32:10 PM 51.7327 0.0285 322° Northwest 278 320 9,000 462 Level FlightAware ADS-B
Fri 05:32:20 PM 51.7456 0.0125 323° Northwest 273 314 9,200 1,200 Climbing FlightAware ADS-B (KSCH)
Fri 05:32:25 PM 51.7482 0.0093 322° Northwest 281 323 9,300 1,200 Climbing FlightAware ADS-B
Fri 05:32:30 PM 51.7525 0.0042 323° Northwest 279 321 9,400 1,200 Climbing FlightAware ADS-B
Fri 05:32:40 PM 51.7641 -0.0105 322° Northwest 286 329 9,600 1,412 Climbing FlightAware ADS-B
Fri 05:32:47 PM 51.7683 -0.0156 323° Northwest 287 330 9,800 2,118 Climbing FlightAware ADS-B (EGLF / FAB)
Fri 05:32:57 PM 51.7815 -0.0324 322° Northwest 288 331 10,200 3,250 Climbing FlightAware ADS-B
Fri 05:33:11 PM 51.7923 -0.0475 319° Northwest 288 331 11,100 4,174 Climbing FlightAware ADS-B
Fri 05:33:20 PM 51.8069 -0.0685 318° Northwest 285 328 11,800 3,375 Climbing FlightAware ADS-B (KSCH)
Fri 05:33:27 PM 51.8117 -0.0753 319° Northwest 293 337 12,000 2,000 Climbing FlightAware ADS-B
Fri 05:33:29 PM 51.8138 -0.0781 321° Northwest 286 329 12,100 3,882 Climbing FlightAware ADS-B (EGHI / SOU)
Fri 05:33:44 PM 51.8261 -0.0954 319° Northwest 303 349 13,100 4,000 Climbing FlightAware ADS-B
Fri 05:33:53 PM 51.8392 -0.1129 320° Northwest 309 356 13,700 4,154 Climbing FlightAware ADS-B
Fri 05:33:57 PM 51.8443 -0.1200 319° Northwest 310 357 14,000 3,462 Climbing FlightAware ADS-B
Fri 05:34:19 PM 51.8682 -0.1512 321° Northwest 309 356 15,200 3,231 Climbing FlightAware ADS-B
Fri 05:34:23 PM 51.8725 -0.1567 321° Northwest 309 356 15,400 1,714 Climbing FlightAware ADS-B
Fri 05:34:33 PM 51.8740 -0.1588 320° Northwest 311 358 15,600 923 Climbing FlightAware ADS-B
Fri 05:34:49 PM 51.9015 -0.1962 320° Northwest 313 360 15,800 947 Climbing FlightAware ADS-B
Fri 05:34:52 PM 51.9053 -0.2013 320° Northwest 307 353 15,900 857 Climbing FlightAware ADS-B (EGHI / SOU)
Fri 05:34:56 PM 51.9095 -0.2075 318° Northwest 314 361 15,900 316 Level FlightAware ADS-B (EGLF / FAB)
Fri 05:35:11 PM 51.9259 -0.2302 319° Northwest 307 353 16,000 231 Climbing FlightAware ADS-B (EGHI / SOU)
Fri 05:35:22 PM 51.9382 -0.2470 320° Northwest 312 359 16,000  Level FlightAware ADS-B
Fri 05:35:33 PM 51.9497 -0.2628 320° Northwest 303 349 16,000  Level FlightAware ADS-B (EGHI / SOU)
Fri 05:35:49 PM 51.9676 -0.2874 320° Northwest 309 356 16,000  Level FlightAware ADS-B
Fri 05:35:56 PM 51.9748 -0.2973 320° Northwest 308 354 16,000  Level FlightAware ADS-B
Fri 05:36:13 PM 51.9916 -0.3205 320° Northwest 302 348 16,000  Level FlightAware ADS-B
Fri 05:36:27 PM 52.0079 -0.3430 320° Northwest 308 354 16,000  Level FlightAware ADS-B
Fri 05:36:38 PM 52.0208 -0.3605 320° Northwest 307 353 16,000  Level FlightAware ADS-B
Fri 05:36:52 PM 52.0349 -0.3804 319° Northwest 301 346 16,000  Level FlightAware ADS-B (EGHI / SOU)
Fri 05:36:56 PM 52.0397 -0.3869 320° Northwest 307 353 16,000  Level FlightAware ADS-B
Fri 05:36:59 PM 52.0457 -0.3954 319° Northwest 301 346 16,000  Level FlightAware ADS-B (KSCH)
Fri 05:37:22 PM 52.0680 -0.4263 320° Northwest 302 348 16,000  Level FlightAware ADS-B
Fri 05:37:27 PM 52.0730 -0.4331 320° Northwest 309 356 16,000  Level FlightAware ADS-B
Fri 05:37:35 PM 52.0810 -0.4442 320° Northwest 309 356 16,000  Level FlightAware ADS-B
Fri 05:37:51 PM 52.0915 -0.4585 320° Northwest 309 356 16,000  Level FlightAware ADS-B (EGLF / FAB)
Fri 05:37:57 PM 52.1057 -0.4785 319° Northwest 310 357 16,000  Level FlightAware ADS-B
Fri 05:38:12 PM 52.1212 -0.5000 319° Northwest 311 358 16,000  Level FlightAware ADS-B
Fri 05:38:20 PM 52.1310 -0.5136 320° Northwest 309 356 16,000  Level FlightAware ADS-B
Fri 05:38:28 PM 52.1389 -0.5246 320° Northwest 308 354 16,000  Level FlightAware ADS-B
Fri 05:38:55 PM 52.1674 -0.5646 319° Northwest 306 352 16,000  Level FlightAware ADS-B
Fri 05:38:58 PM 52.1717 -0.5706 319° Northwest 307 353 16,000  Level FlightAware ADS-B
Fri 05:39:25 PM 52.2002 -0.6111 319° Northwest 308 354 16,000  Level FlightAware ADS-B
Fri 05:39:29 PM 52.2043 -0.6169 319° Northwest 308 354 16,000  Level FlightAware ADS-B
Fri 05:39:35 PM 52.2106 -0.6261 319° Northwest 304 350 16,000  Level FlightAware ADS-B
Fri 05:39:59 PM 52.2369 -0.6641 318° Northwest 310 357 16,000  Level FlightAware ADS-B
Fri 05:40:04 PM 52.2415 -0.6712 317° Northwest 310 357 16,000  Level FlightAware ADS-B
Fri 05:40:30 PM 52.2693 -0.7133 317° Northwest 308 354 16,000  Level FlightAware ADS-B
Fri 05:40:34 PM 52.2699 -0.7143 313° West 306 352 16,000  Level FlightAware ADS-B
Fri 05:41:00 PM 52.3002 -0.7608 317° Northwest 304 350 16,000  Level FlightAware ADS-B
Fri 05:41:05 PM 52.3052 -0.7687 316° Northwest 305 351 16,000  Level FlightAware ADS-B
Fri 05:41:18 PM 52.3162 -0.7855 317° Northwest 299 344 16,000  Level FlightAware ADS-B
Fri 05:41:24 PM 52.3276 -0.8028 317° Northwest 300 345 16,000  Level FlightAware ADS-B (KSCH)
Fri 05:41:30 PM 52.3311 -0.8085 316° Northwest 306 352 16,000  Level FlightAware ADS-B
Fri 05:41:35 PM 52.3354 -0.8152 317° Northwest 300 345 16,000  Level FlightAware ADS-B
Fri 05:42:01 PM 52.3624 -0.8571 317° Northwest 308 354 16,000  Level FlightAware ADS-B
Fri 05:42:05 PM 52.3661 -0.8633 315° West 308 354 16,000  Level FlightAware ADS-B
Fri 05:42:11 PM 52.3720 -0.8724 317° Northwest 308 354 16,000  Level FlightAware ADS-B (EGLF / FAB)
Fri 05:42:14 PM 52.3758 -0.8784 316° Northwest 302 348 16,000  Level FlightAware ADS-B
Fri 05:42:25 PM 52.3897 -0.9005 316° Northwest 301 346 16,000  Level FlightAware ADS-B (KSCH)
Fri 05:42:31 PM 52.3933 -0.9064 315° West 307 353 16,000  Level FlightAware ADS-B
Fri 05:42:49 PM 52.4130 -0.9376 316° Northwest 301 346 16,000  Level FlightAware ADS-B (KSCH)
Fri 05:43:02 PM 52.4243 -0.9558 315° West 306 352 16,000  Level FlightAware ADS-B
Fri 05:43:11 PM 52.4340 -0.9714 315° West 307 353 16,000  Level FlightAware ADS-B (EGLF / FAB)
Fri 05:43:25 PM 52.4501 -0.9976 315° West 304 350 16,000  Level FlightAware ADS-B (KSCH)
Fri 05:43:32 PM 52.4551 -1.0054 316° Northwest 310 357 16,000  Level FlightAware ADS-B
Fri 05:43:37 PM 52.4628 -1.0180 315° West 305 351 16,000  Level FlightAware ADS-B (KSCH)
Fri 05:43:49 PM 52.4714 -1.0323 314° West 304 350 16,000  Level FlightAware ADS-B
Fri 05:44:02 PM 52.4853 -1.0552 315° West 309 356 16,000  Level FlightAware ADS-B
Fri 05:44:22 PM 52.5044 -1.0861 315° West 308 354 16,000  Level FlightAware ADS-B
Fri 05:44:32 PM 52.5157 -1.1050 315° West 308 354 16,000  Level FlightAware ADS-B
Fri 05:45:04 PM 52.5476 -1.1573 315° West 303 349 16,000  Level FlightAware ADS-B
Fri 05:45:05 PM 52.5480 -1.1580 313° West 303 349 16,000  Level FlightAware ADS-B
Fri 05:45:35 PM 52.5776 -1.2066 315° West 303 349 16,000  Level FlightAware ADS-B
Fri 05:46:06 PM 52.6082 -1.2569 315° West 305 351 16,000  Level FlightAware ADS-B
Fri 05:46:09 PM 52.6007 -1.2444 135° Southeast 306 352 16,000  Level FlightAware ADS-B
Fri 05:46:37 PM 52.6391 -1.3081 315° West 308 354 16,000  Level FlightAware ADS-B
Fri 05:46:40 PM 52.6422 -1.3134 314° West 308 354 16,000  Level FlightAware ADS-B
Fri 05:46:46 PM 52.6484 -1.3239 314° West 303 349 16,000  Level FlightAware ADS-B
Fri 05:47:07 PM 52.6695 -1.3596 314° West 305 351 16,000  Level FlightAware ADS-B
Fri 05:47:18 PM 52.6803 -1.3777 314° West 303 349 16,000  Level FlightAware ADS-B (EGLF / FAB)
Fri 05:47:32 PM 52.6942 -1.4011 314° West 298 343 16,000  Level FlightAware ADS-B
Fri 05:47:34 PM 52.6951 -1.4023 320° Northwest 303 349 16,000  Level FlightAware ADS-B
Fri 05:47:45 PM 52.7071 -1.4205 317° Northwest 307 353 16,000  Level FlightAware ADS-B
Fri 05:48:11 PM 52.7357 -1.4577 322° Northwest 317 365 16,000  Level FlightAware ADS-B
Fri 05:48:33 PM 52.7634 -1.4881 326° Northwest 315 362 16,000  Level FlightAware ADS-B
Fri 05:48:41 PM 52.7735 -1.4995 326° Northwest 322 371 16,000  Level FlightAware ADS-B
Fri 05:48:53 PM 52.7888 -1.5163 326° Northwest 323 372 16,000  Level FlightAware ADS-B
Fri 05:49:01 PM 52.7986 -1.5267 327° Northwest 323 372 16,000  Level FlightAware ADS-B
Fri 05:49:10 PM 52.8092 -1.5369 330° Northwest 327 376 16,000  Level FlightAware ADS-B
Fri 05:49:33 PM 52.8408 -1.5630 334° Northwest 326 375 16,000  Level FlightAware ADS-B
Fri 05:49:40 PM 52.8508 -1.5712 334° Northwest 325 374 16,000 -1,000 Level FlightAware ADS-B
Fri 05:49:51 PM 52.8650 -1.5827 334° Northwest 322 371 15,700 -1,953 Descending FlightAware ADS-B (KEGE)
Fri 05:50:23 PM 52.9079 -1.6180 334° Northwest 318 366 14,600 -1,950 Descending FlightAware ADS-B
Fri 05:50:31 PM 52.9184 -1.6270 333° Northwest 310 357 14,400 -2,000 Descending FlightAware ADS-B
Fri 05:51:05 PM 52.9627 -1.6639 333° Northwest 306 352 13,200 -474 Descending FlightAware ADS-B
Fri 05:51:09 PM 52.9673 -1.6679 333° Northwest 313 360 14,100 -2,750 Climbing FlightAware ADS-B
Fri 05:51:29 PM 52.9936 -1.6903 333° Northwest 309 356 12,100 -3,706 Descending FlightAware ADS-B
Fri 05:51:43 PM 53.0115 -1.7058 333° Northwest 306 352 12,000 -1,532 Descending FlightAware ADS-B
Fri 05:52:16 PM 53.0367 -1.7344 333° Northwest 300 345 10,900 -1,826 Descending FlightAware UK
Fri 05:52:29 PM 53.0669 -1.7549 333° Northwest 291 335 10,600 -1,818 Descending FlightAware ADS-B
Fri 05:52:49 PM 53.0909 -1.7760 332° Northwest 297 342 9,900 -2,100 Descending FlightAware ADS-B
Fri 05:53:09 PM 53.1155 -1.7981 332° Northwest 294 338 9,200 -1,846 Descending FlightAware ADS-B
Fri 05:53:28 PM 53.1374 -1.8179 332° Northwest 291 335 8,700 -1,650 Descending FlightAware ADS-B
Fri 05:53:49 PM 53.1628 -1.8402 332° Northwest 292 336 8,100 -1,050 Descending FlightAware ADS-B
Fri 05:54:08 PM 53.1864 -1.8608 332° Northwest 295 339 8,000 -150 Descending FlightAware ADS-B (KEGE)
Fri 05:54:29 PM 53.2109 -1.8823 332° Northwest 294 338 8,000  Level FlightAware ADS-B (KEGE)
Fri 05:54:49 PM 53.2362 -1.8996 338° Northwest 295 339 8,000  Level FlightAware ADS-B (KEGE)
Fri 05:55:09 PM 53.2628 -1.9155 340° North 293 337 8,000 -171 Level FlightAware ADS-B
Fri 05:55:24 PM 53.2809 -1.9265 340° North 295 339 7,900 -1,050 Descending FlightAware ADS-B (EGCC / MAN)
Fri 05:55:49 PM 53.3139 -1.9460 341° North 293 337 7,300 -1,455 Descending FlightAware ADS-B (EGCC / MAN)
Fri 05:55:57 PM 53.3246 -1.9523 340° North 294 338 7,100 -1,304 Descending FlightAware ADS-B
Fri 05:56:12 PM 53.3443 -1.9641 340° North 294 338 6,800 -1,548 Descending FlightAware ADS-B (KEGE)
Fri 05:56:28 PM 53.3580 -1.9724 340° North 294 338 6,300 -1,941 Descending FlightAware ADS-B
Fri 05:56:46 PM 53.3869 -1.9899 340° North 292 336 5,700 -1,714 Descending FlightAware ADS-B
Fri 05:56:49 PM 53.3908 -1.9923 340° North 289 333 5,700 -783 Level FlightAware ADS-B
Fri 05:57:09 PM 53.4148 -2.0066 341° North 274 315 5,400 -1,043 Descending FlightAware ADS-B
Fri 05:57:12 PM 53.4191 -2.0100 334° Northwest 260 299 5,300 -900 Descending FlightAware ADS-B (KEGE)
Fri 05:57:29 PM 53.4359 -2.0275 328° Northwest 253 291 5,100 -1,000 Descending FlightAware ADS-B
Fri 05:57:42 PM 53.4483 -2.0416 326° Northwest 245 282 4,800 -1,500 Descending FlightAware ADS-B (KEGE)
Fri 05:57:49 PM 53.4538 -2.0510 315° West 231 266 4,600 -1,765 Descending FlightAware ADS-B
Fri 05:57:59 PM 53.4583 -2.0653 298° West 216 249 4,300 -1,385 Descending FlightAware ADS-B
Fri 05:58:02 PM 53.4591 -2.0702 286° West 205 236 4,300 -857 Level FlightAware ADS-B (KEGE)
Fri 05:58:13 PM 53.4590 -2.0872 269° West 182 209 4,100 -600 Descending FlightAware ADS-B
Fri 05:58:22 PM 53.4557 -2.0975 242° Southwest 166 191 4,100 -200 Level FlightAware ADS-B (KEGE)
Fri 05:58:43 PM 53.4455 -2.1174 229° Southwest 158 182 4,000 -600 Descending FlightAware ADS-B (KEGE)
Fri 05:59:02 PM 53.4370 -2.1363 233° Southwest 159 183 3,700 -837 Descending FlightAware ADS-B (KEGE)
Fri 05:59:26 PM 53.4260 -2.1585 230° Southwest 151 174 3,400 -818 Descending FlightAware ADS-B (KEGE)
Fri 05:59:46 PM 53.4171 -2.1766 230° Southwest 135 155 3,100 -750 Descending FlightAware ADS-B (KEGE)
Fri 06:00:06 PM 53.4094 -2.1928 231° Southwest 130 150 2,900 -621 Descending FlightAware ADS-B (KEGE)
Fri 06:00:15 PM 53.4063 -2.1990 230° Southwest 122 140 2,800 -732 Descending FlightAware ADS-B
Fri 06:00:47 PM 53.3944 -2.2237 231° Southwest 127 146 2,400 -720 Descending FlightAware ADS-B (KEGE)
Fri 06:01:05 PM 53.3881 -2.2366 231° Southwest 127 146 2,200 -649 Descending FlightAware ADS-B (KEGE)
Fri 06:01:24 PM 53.3809 -2.2510 230° Southwest 127 146 2,000 -632 Descending FlightAware ADS-B (KEGE)
Fri 06:04:00 PM 53.0697 -1.9459 149° Southeast  Level Estimated
Fri 06:05:00 PM 52.9498 -1.8297 150° Southeast  Level Estimated
Fri 06:06:00 PM 52.8298 -1.7141 150° Southeast  Level Estimated
Fri 06:07:00 PM 52.7097 -1.5992 150° Southeast  Level Estimated
Fri 06:08:00 PM 52.5895 -1.4849 150° Southeast  Level Estimated
Fri 06:09:00 PM 52.4691 -1.3713 150° Southeast  Level Estimated
Fri 06:10:00 PM 52.3487 -1.2582 150° Southeast  Level Estimated
Fri 06:11:00 PM 52.2281 -1.1458 150° Southeast  Level Estimated
Fri 06:12:00 PM 52.1075 -1.0340 150° Southeast  Level Estimated
Fri 06:13:00 PM 51.9867 -0.9228 150° Southeast  Level Estimated
Fri 06:14:00 PM 51.8658 -0.8122 151° Southeast  Level Estimated
Fri 06:15:00 PM 51.7449 -0.7021 151° Southeast  Level Estimated
Fri 06:16:00 PM 51.6238 -0.5927 151° Southeast  Level Estimated

Login

Don't have an account? Register now (free) for customized features, flight alerts, and more!